Time,TemperatureF,DewpointF,PressureIn,WindDirection,WindDirectionDegrees,WindSpeedMPH,WindSpeedGustMPH,Humidity,HourlyPrecipIn,Conditions,Clouds,dailyrainin,SolarRadiationWatts/m^2,SoftwareType,DateUTC
2013-02-03 00:00:00,36.5,25.1,30.00,South,188,0.0,0.0,63,0.00,,,0.00,0,Wunderground v.1.15,2013-02-03 05:00:00,
2013-02-03 00:01:00,36.5,25.5,30.00,South,188,0.0,0.0,64,0.00,,,0.00,0,Wunderground v.1.15,2013-02-03 05:01:00,
2013-02-03 00:05:00,36.6,25.6,30.00,South,188,0.0,0.0,64,0.00,,,0.00,0,Wunderground v.1.15,2013-02-03 05:05:00,
2013-02-03 00:08:00,36.7,25.7,29.99,South,188,0.0,0.0,64,0.00,,,0.00,0,Wunderground v.1.15,2013-02-03 05:08:00,
2013-02-03 00:09:00,36.7,25.0,29.99,South,188,0.0,-999.0,64,-99.99,,,0.00,0,weatherlink.com 1.10,2013-02-03 05:09:00,
2013-02-03 00:11:00,36.8,25.8,30.00,South,188,0.0,0.0,64,0.00,,,0.00,0,Wunderground v.1.15,2013-02-03 05:11:00,
2013-02-03 00:15:00,36.9,26.2,29.99,South,188,0.0,0.0,65,0.00,,,0.00,0,Wunderground v.1.15,2013-02-03 05:15:00,
2013-02-03 00:16:00,36.9,25.9,29.99,South,188,0.0,0.0,64,0.00,,,0.00,0,Wunderground v.1.15,2013-02-03 05:16:00,
2013-02-03 00:17:00,36.9,25.9,29.99,South,188,0.0,0.0,64,0.00,,,0.00,0,Wunderground v.1.15,2013-02-03 05:17:00,
2013-02-03 00:22:00,37.0,26.3,29.99,South,188,0.0,0.0,65,0.00,,,0.00,0,Wunderground v.1.15,2013-02-03 05:22:00,
2013-02-03 00:23:00,37.0,26.0,29.99,South,188,0.0,-999.0,65,-99.99,,,0.00,0,weatherlink.com 1.10,2013-02-03 05:23:00,
2013-02-03 00:25:00,37.0,26.3,29.99,South,188,0.0,0.0,65,0.00,,,0.00,0,Wunderground v.1.15,2013-02-03 05:25:00,
2013-02-03 00:29:00,37.1,26.4,30.00,SSW,192,1.0,1.0,65,0.00,,,0.00,0,Wunderground v.1.15,2013-02-03 05:29:00,
2013-02-03 00:30:00,37.2,26.5,30.00,South,171,1.0,2.0,65,0.00,,,0.00,0,Wunderground v.1.15,2013-02-03 05:30:00,
2013-02-03 00:32:00,37.2,26.5,29.99,South,183,1.0,2.0,65,0.00,,,0.00,0,Wunderground v.1.15,2013-02-03 05:32:00,
2013-02-03 00:35:00,37.3,26.6,29.99,South,191,1.0,2.0,65,0.00,,,0.00,0,Wunderground v.1.15,2013-02-03 05:35:00,
2013-02-03 00:37:00,37.3,27.0,29.99,South,191,1.0,2.0,66,0.00,,,0.00,0,Wunderground v.1.15,2013-02-03 05:37:00,
2013-02-03 00:39:00,37.4,27.4,29.99,SSW,200,1.0,5.0,67,0.00,,,0.00,0,Wunderground v.1.15,2013-02-03 05:39:00,
2013-02-03 00:40:00,37.5,27.0,29.99,SW,221,4.0,-999.0,67,-99.99,,,0.00,0,weatherlink.com 1.10,2013-02-03 05:40:00,
2013-02-03 00:41:00,37.6,28.0,29.99,SSW,197,2.0,8.0,68,0.00,,,0.00,0,Wunderground v.1.15,2013-02-03 05:41:00,
2013-02-03 00:45:00,38.0,29.1,30.00,SW,225,3.0,8.0,70,0.00,,,0.00,0,Wunderground v.1.15,2013-02-03 05:45:00,
2013-02-03 00:46:00,38.0,29.8,30.00,SW,225,3.0,8.0,72,0.00,,,0.00,0,Wunderground v.1.15,2013-02-03 05:46:00,
2013-02-03 00:47:00,38.1,29.9,30.00,SW,215,3.0,8.0,72,0.00,,,0.00,0,Wunderground v.1.15,2013-02-03 05:47:00,
2013-02-03 00:51:00,38.2,30.3,29.99,SSW,203,3.0,3.0,73,0.00,,,0.00,0,Wunderground v.1.15,2013-02-03 05:51:00,
2013-02-03 00:52:00,38.2,30.3,29.99,SSW,213,3.0,3.0,73,0.00,,,0.00,0,Wunderground v.1.15,2013-02-03 05:52:00,
2013-02-03 00:55:00,38.2,30.6,29.99,SSW,212,4.0,5.0,74,0.00,,,0.00,0,Wunderground v.1.15,2013-02-03 05:55:00,
2013-02-03 00:58:00,38.1,30.9,29.99,SW,215,4.0,5.0,75,0.00,,,0.00,0,Wunderground v.1.15,2013-02-03 05:58:00,
2013-02-03 00:59:00,38.1,31.2,29.99,West,265,3.0,6.0,76,0.00,,,0.00,0,Wunderground v.1.15,2013-02-03 05:59:00,
2013-02-03 01:00:00,38.0,31.4,29.99,WSW,253,4.0,4.0,77,0.00,,,0.00,0,Wunderground v.1.15,2013-02-03 06:00:00,
2013-02-03 01:06:00,37.9,32.3,29.98,SW,219,4.0,5.0,80,0.00,,,0.00,0,Wunderground v.1.15,2013-02-03 06:06:00,
2013-02-03 01:09:00,37.8,32.0,29.98,WSW,237,2.0,-999.0,81,-99.99,,,0.00,0,weatherlink.com 1.10,2013-02-03 06:09:00,
2013-02-03 01:10:00,37.8,32.8,29.98,SW,221,3.0,4.0,82,0.00,,,0.00,0,Wunderground v.1.15,2013-02-03 06:10:00,
2013-02-03 01:15:00,37.6,32.9,29.98,SW,223,3.0,4.0,83,0.00,,,0.00,0,Wunderground v.1.15,2013-02-03 06:15:00,
2013-02-03 01:16:00,37.5,32.8,29.98,SSW,205,3.0,4.0,83,0.00,,,0.00,0,Wunderground v.1.15,2013-02-03 06:16:00,
2013-02-03 01:17:00,37.5,33.1,29.98,WSW,248,3.0,4.0,84,0.00,,,0.01,0,Wunderground v.1.15,2013-02-03 06:17:00,
2013-02-03 01:19:00,37.4,33.0,29.98,WSW,238,3.0,4.0,84,0.00,,,0.01,0,Wunderground v.1.15,2013-02-03 06:19:00,
2013-02-03 01:25:00,37.3,33.5,29.97,SSW,213,3.0,6.0,86,0.00,,,0.01,0,Wunderground v.1.15,2013-02-03 06:25:00,
2013-02-03 01:26:00,37.3,33.5,29.97,SW,217,2.0,6.0,86,0.00,,,0.01,0,Wunderground v.1.15,2013-02-03 06:26:00,
2013-02-03 01:32:00,37.1,33.6,29.97,WNW,292,3.0,3.0,87,0.04,,,0.02,0,Wunderground v.1.15,2013-02-03 06:32:00,
2013-02-03 01:36:00,37.0,33.8,29.96,SW,227,3.0,3.0,88,0.04,,,0.02,0,Wunderground v.1.15,2013-02-03 06:36:00,
2013-02-03 01:37:00,37.0,33.8,29.96,SW,236,3.0,3.0,88,0.04,,,0.02,0,Wunderground v.1.15,2013-02-03 06:37:00,
2013-02-03 01:38:00,37.0,33.8,29.96,WSW,237,3.0,3.0,88,0.04,,,0.02,0,Wunderground v.1.15,2013-02-03 06:38:00,
2013-02-03 01:39:00,37.0,34.1,29.96,SW,227,3.0,3.0,89,0.04,,,0.02,0,Wunderground v.1.15,2013-02-03 06:39:00,
2013-02-03 01:45:00,36.9,34.0,29.96,SSW,205,1.0,4.0,89,0.04,,,0.02,0,Wunderground v.1.15,2013-02-03 06:45:00,
2013-02-03 01:46:00,36.9,34.0,29.96,SW,218,1.0,4.0,89,0.04,,,0.02,0,Wunderground v.1.15,2013-02-03 06:46:00,
2013-02-03 01:52:00,36.8,34.1,29.96,WSW,256,1.0,4.0,90,0.00,,,0.02,0,Wunderground v.1.15,2013-02-03 06:52:00,
2013-02-03 01:56:00,36.7,34.0,29.95,SW,220,2.0,7.0,90,0.00,,,0.02,0,Wunderground v.1.15,2013-02-03 06:56:00,
2013-02-03 01:57:00,36.7,34.0,29.95,SW,227,0.0,-999.0,90,-99.99,,,0.02,0,weatherlink.com 1.10,2013-02-03 06:57:00,
2013-02-03 02:02:00,36.6,33.9,29.95,SW,226,3.0,6.0,90,0.00,,,0.02,0,Wunderground v.1.15,2013-02-03 07:02:00,
2013-02-03 02:05:00,36.6,34.2,29.95,WSW,248,3.0,6.0,91,0.00,,,0.02,0,Wunderground v.1.15,2013-02-03 07:05:00,
2013-02-03 02:07:00,36.6,34.2,29.95,WSW,245,3.0,6.0,91,0.00,,,0.02,0,Wunderground v.1.15,2013-02-03 07:07:00,
2013-02-03 02:09:00,36.6,34.2,29.95,SW,227,3.0,6.0,91,0.00,,,0.02,0,Wunderground v.1.15,2013-02-03 07:09:00,
2013-02-03 02:12:00,36.7,34.3,29.95,SW,236,2.0,3.0,91,0.00,,,0.02,0,Wunderground v.1.15,2013-02-03 07:12:00,
2013-02-03 02:15:00,36.7,34.3,29.94,SW,230,1.0,3.0,91,0.00,,,0.02,0,Wunderground v.1.15,2013-02-03 07:15:00,
2013-02-03 02:18:00,36.6,34.2,29.94,SW,230,1.0,3.0,91,0.00,,,0.02,0,Wunderground v.1.15,2013-02-03 07:18:00,
2013-02-03 02:19:00,36.7,34.3,29.94,SW,227,1.0,3.0,91,0.00,,,0.02,0,Wunderground v.1.15,2013-02-03 07:19:00,
2013-02-03 02:25:00,36.7,34.6,29.94,SSW,211,1.0,2.0,92,0.00,,,0.02,0,Wunderground v.1.15,2013-02-03 07:25:00,
2013-02-03 02:27:00,36.7,34.6,29.94,SSW,209,1.0,2.0,92,0.00,,,0.02,0,Wunderground v.1.15,2013-02-03 07:27:00,
2013-02-03 02:29:00,36.7,34.6,29.94,WSW,248,1.0,5.0,92,0.00,,,0.02,0,Wunderground v.1.15,2013-02-03 07:29:00,
2013-02-03 02:30:00,36.7,34.6,29.94,SW,217,1.0,1.0,92,0.00,,,0.02,0,Wunderground v.1.15,2013-02-03 07:30:00,
2013-02-03 02:33:00,36.7,34.6,29.94,SW,222,1.0,2.0,92,0.00,,,0.02,0,Wunderground v.1.15,2013-02-03 07:33:00,
2013-02-03 02:34:00,36.7,34.6,29.93,SW,236,1.0,2.0,92,0.00,,,0.02,0,Wunderground v.1.15,2013-02-03 07:34:00,
2013-02-03 02:35:00,36.6,34.5,29.93,SSW,210,1.0,2.0,92,0.00,,,0.02,0,Wunderground v.1.15,2013-02-03 07:35:00,
2013-02-03 02:38:00,36.6,34.5,29.93,SSW,207,1.0,2.0,92,0.00,,,0.02,0,Wunderground v.1.15,2013-02-03 07:38:00,
2013-02-03 02:39:00,36.6,34.5,29.93,SW,232,1.0,2.0,92,0.00,,,0.02,0,Wunderground v.1.15,2013-02-03 07:39:00,
2013-02-03 02:40:00,36.6,34.5,29.93,SW,232,1.0,1.0,92,0.00,,,0.02,0,Wunderground v.1.15,2013-02-03 07:40:00,
2013-02-03 02:41:00,36.6,34.5,29.93,SW,232,1.0,1.0,92,0.00,,,0.02,0,Wunderground v.1.15,2013-02-03 07:41:00,
2013-02-03 02:46:00,36.5,34.4,29.93,SSW,205,1.0,2.0,92,0.00,,,0.02,0,Wunderground v.1.15,2013-02-03 07:46:00,
2013-02-03 02:48:00,36.5,34.4,29.93,SW,230,1.0,2.0,92,0.00,,,0.02,0,Wunderground v.1.15,2013-02-03 07:48:00,
2013-02-03 02:51:00,36.5,34.4,29.93,WSW,238,1.0,1.0,92,0.00,,,0.02,0,Wunderground v.1.15,2013-02-03 07:51:00,
2013-02-03 02:55:00,36.5,34.4,29.93,WSW,244,1.0,3.0,92,0.00,,,0.02,0,Wunderground v.1.15,2013-02-03 07:55:00,
2013-02-03 02:56:00,36.5,34.4,29.93,SW,221,1.0,4.0,92,0.00,,,0.02,0,Wunderground v.1.15,2013-02-03 07:56:00,
2013-02-03 03:02:00,36.5,34.4,29.92,SW,230,1.0,3.0,92,0.00,,,0.02,0,Wunderground v.1.15,2013-02-03 08:02:00,
2013-02-03 03:05:00,36.5,34.4,29.92,SW,231,1.0,3.0,92,0.00,,,0.02,0,Wunderground v.1.15,2013-02-03 08:05:00,
2013-02-03 03:08:00,36.5,34.4,29.92,SW,223,0.0,3.0,92,0.00,,,0.02,0,Wunderground v.1.15,2013-02-03 08:08:00,
2013-02-03 03:09:00,36.5,34.4,29.92,WSW,250,0.0,3.0,92,0.00,,,0.02,0,Wunderground v.1.15,2013-02-03 08:09:00,
2013-02-03 03:15:00,36.4,34.3,29.92,WSW,244,0.0,1.0,92,0.00,,,0.02,0,Wunderground v.1.15,2013-02-03 08:15:00,
2013-02-03 03:16:00,36.5,34.4,29.92,NNW,330,0.0,1.0,92,0.00,,,0.02,0,Wunderground v.1.15,2013-02-03 08:16:00,
2013-02-03 03:18:00,36.4,34.3,29.92,WSW,254,1.0,1.0,92,0.00,,,0.02,0,Wunderground v.1.15,2013-02-03 08:18:00,
2013-02-03 03:19:00,36.4,34.3,29.92,WSW,255,1.0,1.0,92,0.00,,,0.02,0,Wunderground v.1.15,2013-02-03 08:19:00,
2013-02-03 03:22:00,36.4,34.3,29.92,WSW,237,0.0,1.0,92,0.00,,,0.02,0,Wunderground v.1.15,2013-02-03 08:22:00,
2013-02-03 03:25:00,36.4,34.3,29.92,WSW,245,1.0,4.0,92,0.00,,,0.02,0,Wunderground v.1.15,2013-02-03 08:25:00,
2013-02-03 03:26:00,36.4,34.3,29.92,West,259,1.0,4.0,92,0.00,,,0.02,0,Wunderground v.1.15,2013-02-03 08:26:00,
2013-02-03 03:30:00,36.4,34.3,29.91,WSW,244,1.0,1.0,92,0.00,,,0.02,0,Wunderground v.1.15,2013-02-03 08:30:00,
2013-02-03 03:31:00,36.5,34.4,29.91,WSW,245,1.0,1.0,92,0.00,,,0.02,0,Wunderground v.1.15,2013-02-03 08:31:00,
2013-02-03 03:36:00,36.5,34.4,29.91,WSW,245,1.0,1.0,92,0.00,,,0.02,0,Wunderground v.1.15,2013-02-03 08:36:00,
2013-02-03 03:37:00,36.5,34.4,29.91,WSW,245,0.0,1.0,92,0.00,,,0.02,0,Wunderground v.1.15,2013-02-03 08:37:00,
2013-02-03 03:38:00,36.5,34.4,29.91,WSW,245,0.0,2.0,92,0.00,,,0.02,0,Wunderground v.1.15,2013-02-03 08:38:00,
2013-02-03 03:42:00,36.5,34.4,29.90,SW,219,0.0,1.0,92,0.00,,,0.02,0,Wunderground v.1.15,2013-02-03 08:42:00,
2013-02-03 03:46:00,36.5,34.4,29.90,SW,219,0.0,1.0,92,0.00,,,0.02,0,Wunderground v.1.15,2013-02-03 08:46:00,
2013-02-03 03:48:00,36.5,34.4,29.90,SW,219,0.0,1.0,92,0.00,,,0.02,0,Wunderground v.1.15,2013-02-03 08:48:00,
2013-02-03 03:51:00,36.5,34.4,29.90,SW,219,0.0,0.0,92,0.00,,,0.02,0,Wunderground v.1.15,2013-02-03 08:51:00,
2013-02-03 03:56:00,36.4,34.3,29.90,SW,219,0.0,0.0,92,0.00,,,0.02,0,Wunderground v.1.15,2013-02-03 08:56:00,
2013-02-03 03:57:00,36.4,34.3,29.90,SW,222,0.0,1.0,92,0.00,,,0.02,0,Wunderground v.1.15,2013-02-03 08:57:00,
2013-02-03 03:58:00,36.4,34.3,29.90,SW,222,0.0,1.0,92,0.00,,,0.02,0,Wunderground v.1.15,2013-02-03 08:58:00,
2013-02-03 04:01:00,36.3,34.2,29.90,SW,222,0.0,0.0,92,0.00,,,0.02,0,Wunderground v.1.15,2013-02-03 09:01:00,
2013-02-03 04:02:00,36.3,34.2,29.90,SW,222,0.0,0.0,92,0.00,,,0.02,0,Wunderground v.1.15,2013-02-03 09:02:00,
2013-02-03 04:05:00,36.3,34.2,29.90,SW,222,0.0,0.0,92,0.00,,,0.02,0,Wunderground v.1.15,2013-02-03 09:05:00,
2013-02-03 04:07:00,36.2,34.1,29.90,SW,222,0.0,0.0,92,0.00,,,0.02,0,Wunderground v.1.15,2013-02-03 09:07:00,
2013-02-03 04:08:00,36.2,34.1,29.90,SW,222,0.0,0.0,92,0.00,,,0.02,0,Wunderground v.1.15,2013-02-03 09:08:00,
2013-02-03 04:15:00,36.1,34.0,29.91,SW,222,0.0,0.0,92,0.00,,,0.02,0,Wunderground v.1.15,2013-02-03 09:15:00,
2013-02-03 04:16:00,36.1,34.0,29.91,SW,222,0.0,0.0,92,0.00,,,0.02,0,Wunderground v.1.15,2013-02-03 09:16:00,
2013-02-03 04:18:00,36.1,34.0,29.90,SW,222,0.0,0.0,92,0.00,,,0.02,0,Wunderground v.1.15,2013-02-03 09:18:00,
2013-02-03 04:21:00,36.0,33.9,29.90,SW,222,0.0,0.0,92,0.00,,,0.02,0,Wunderground v.1.15,2013-02-03 09:21:00,
2013-02-03 04:25:00,36.0,33.9,29.90,SW,222,0.0,0.0,92,0.00,,,0.02,0,Wunderground v.1.15,2013-02-03 09:25:00,
2013-02-03 04:26:00,36.0,33.9,29.90,SW,222,0.0,0.0,92,0.00,,,0.02,0,Wunderground v.1.15,2013-02-03 09:26:00,
2013-02-03 04:31:00,35.9,33.8,29.90,SW,222,0.0,0.0,92,0.00,,,0.02,0,Wunderground v.1.15,2013-02-03 09:31:00,
2013-02-03 04:35:00,35.9,33.8,29.90,SW,222,0.0,0.0,92,0.00,,,0.02,0,Wunderground v.1.15,2013-02-03 09:35:00,
2013-02-03 04:36:00,35.8,33.7,29.90,SW,222,0.0,0.0,92,0.00,,,0.02,0,Wunderground v.1.15,2013-02-03 09:36:00,
2013-02-03 04:38:00,35.8,33.7,29.90,SW,222,0.0,0.0,92,0.00,,,0.02,0,Wunderground v.1.15,2013-02-03 09:38:00,
2013-02-03 04:42:00,35.7,34.0,29.90,SW,222,0.0,-999.0,92,-99.99,,,0.02,0,weatherlink.com 1.10,2013-02-03 09:42:00,
2013-02-03 04:45:00,35.6,33.5,29.90,SW,222,0.0,0.0,92,0.00,,,0.02,0,Wunderground v.1.15,2013-02-03 09:45:00,
2013-02-03 04:46:00,35.6,33.5,29.90,SW,222,0.0,1.0,92,0.00,,,0.02,0,Wunderground v.1.15,2013-02-03 09:46:00,
2013-02-03 04:47:00,35.5,33.4,29.90,SW,222,0.0,1.0,92,0.00,,,0.02,0,Wunderground v.1.15,2013-02-03 09:47:00,
2013-02-03 04:51:00,35.4,33.3,29.90,SW,222,0.0,0.0,92,0.00,,,0.02,0,Wunderground v.1.15,2013-02-03 09:51:00,
2013-02-03 04:52:00,35.3,33.2,29.90,SW,222,0.0,0.0,92,0.00,,,0.02,0,Wunderground v.1.15,2013-02-03 09:52:00,
2013-02-03 04:55:00,35.2,33.1,29.89,SW,222,0.0,0.0,92,0.00,,,0.02,0,Wunderground v.1.15,2013-02-03 09:55:00,
2013-02-03 04:56:00,35.2,33.1,29.89,SW,222,0.0,0.0,92,0.00,,,0.02,0,Wunderground v.1.15,2013-02-03 09:56:00,
2013-02-03 05:01:00,35.0,32.9,29.89,SW,222,0.0,0.0,92,0.00,,,0.02,0,Wunderground v.1.15,2013-02-03 10:01:00,
2013-02-03 05:02:00,34.9,32.8,29.89,SW,222,0.0,0.0,92,0.00,,,0.02,0,Wunderground v.1.15,2013-02-03 10:02:00,
2013-02-03 05:05:00,34.8,32.7,29.89,SW,222,0.0,0.0,92,0.00,,,0.02,0,Wunderground v.1.15,2013-02-03 10:05:00,
2013-02-03 05:06:00,34.7,32.6,29.89,SW,222,0.0,0.0,92,0.00,,,0.02,0,Wunderground v.1.15,2013-02-03 10:06:00,
2013-02-03 05:07:00,34.7,32.6,29.89,SW,222,0.0,0.0,92,0.00,,,0.02,0,Wunderground v.1.15,2013-02-03 10:07:00,
2013-02-03 05:12:00,34.4,32.3,29.89,SW,222,0.0,0.0,92,0.00,,,0.02,0,Wunderground v.1.15,2013-02-03 10:12:00,
2013-02-03 05:13:00,34.4,32.3,29.89,SW,222,0.0,0.0,92,0.00,,,0.02,0,Wunderground v.1.15,2013-02-03 10:13:00,
2013-02-03 05:14:00,34.4,32.3,29.89,SW,222,0.0,0.0,92,0.00,,,0.02,0,Wunderground v.1.15,2013-02-03 10:14:00,
2013-02-03 05:19:00,34.2,32.1,29.89,SW,222,0.0,0.0,92,0.00,,,0.02,0,Wunderground v.1.15,2013-02-03 10:19:00,
2013-02-03 05:20:00,34.1,32.0,29.89,SW,222,0.0,0.0,92,0.00,,,0.02,0,Wunderground v.1.15,2013-02-03 10:20:00,
2013-02-03 05:25:00,33.9,31.8,29.89,SW,222,0.0,0.0,92,0.00,,,0.02,0,Wunderground v.1.15,2013-02-03 10:25:00,
2013-02-03 05:26:00,33.9,31.8,29.89,SW,222,0.0,0.0,92,0.00,,,0.02,0,Wunderground v.1.15,2013-02-03 10:26:00,
2013-02-03 05:31:00,33.6,31.5,29.89,SW,222,0.0,0.0,92,0.00,,,0.02,0,Wunderground v.1.15,2013-02-03 10:31:00,
2013-02-03 05:32:00,33.6,31.5,29.89,SW,222,0.0,0.0,92,0.00,,,0.02,0,Wunderground v.1.15,2013-02-03 10:32:00,
2013-02-03 05:33:00,33.5,31.4,29.89,SW,222,0.0,0.0,92,0.00,,,0.02,0,Wunderground v.1.15,2013-02-03 10:33:00,
2013-02-03 05:36:00,33.3,31.2,29.89,SW,222,0.0,0.0,92,0.00,,,0.02,0,Wunderground v.1.15,2013-02-03 10:36:00,
2013-02-03 05:38:00,33.2,31.4,29.89,SW,222,0.0,0.0,93,0.00,,,0.02,0,Wunderground v.1.15,2013-02-03 10:38:00,
2013-02-03 05:40:00,33.1,31.3,29.89,SW,222,0.0,0.0,93,0.00,,,0.02,0,Wunderground v.1.15,2013-02-03 10:40:00,
2013-02-03 05:43:00,32.9,31.1,29.89,SW,222,0.0,0.0,93,0.00,,,0.02,0,Wunderground v.1.15,2013-02-03 10:43:00,
2013-02-03 05:45:00,32.9,31.0,29.89,SW,222,0.0,-999.0,93,-99.99,,,0.02,0,weatherlink.com 1.10,2013-02-03 10:45:00,
2013-02-03 05:46:00,32.8,31.0,29.89,SW,222,0.0,0.0,93,0.00,,,0.02,0,Wunderground v.1.15,2013-02-03 10:46:00,
2013-02-03 05:47:00,32.8,31.0,29.89,SW,222,0.0,0.0,93,0.00,,,0.02,0,Wunderground v.1.15,2013-02-03 10:47:00,
2013-02-03 05:50:00,32.7,30.9,29.89,SW,222,0.0,0.0,93,0.00,,,0.02,0,Wunderground v.1.15,2013-02-03 10:50:00,
2013-02-03 05:51:00,32.6,30.8,29.89,SW,222,0.0,0.0,93,0.00,,,0.02,0,Wunderground v.1.15,2013-02-03 10:51:00,
2013-02-03 05:55:00,32.5,30.7,29.89,SW,222,0.0,0.0,93,0.00,,,0.02,0,Wunderground v.1.15,2013-02-03 10:55:00,
2013-02-03 05:56:00,32.5,30.7,29.89,SW,222,0.0,0.0,93,0.00,,,0.02,0,Wunderground v.1.15,2013-02-03 10:56:00,
2013-02-03 05:58:00,32.5,30.7,29.89,SW,222,0.0,0.0,93,0.00,,,0.02,0,Wunderground v.1.15,2013-02-03 10:58:00,
2013-02-03 06:01:00,32.5,30.7,29.89,SW,222,0.0,0.0,93,0.00,,,0.02,0,Wunderground v.1.15,2013-02-03 11:01:00,
2013-02-03 06:02:00,32.5,30.7,29.89,SW,222,0.0,0.0,93,0.00,,,0.02,0,Wunderground v.1.15,2013-02-03 11:02:00,
2013-02-03 06:05:00,32.5,31.0,29.89,SW,222,0.0,0.0,94,0.00,,,0.02,0,Wunderground v.1.15,2013-02-03 11:05:00,
2013-02-03 06:06:00,32.4,30.6,29.89,SW,222,0.0,0.0,93,0.00,,,0.02,0,Wunderground v.1.15,2013-02-03 11:06:00,
2013-02-03 06:08:00,32.4,30.9,29.89,SW,222,0.0,0.0,94,0.00,,,0.02,0,Wunderground v.1.15,2013-02-03 11:08:00,
2013-02-03 06:10:00,32.4,30.9,29.88,SW,222,0.0,0.0,94,0.00,,,0.02,0,Wunderground v.1.15,2013-02-03 11:10:00,
2013-02-03 06:15:00,32.3,30.8,29.88,SW,222,0.0,0.0,94,0.00,,,0.02,0,Wunderground v.1.15,2013-02-03 11:15:00,
2013-02-03 06:16:00,32.3,30.8,29.88,SW,222,0.0,0.0,94,0.00,,,0.02,0,Wunderground v.1.15,2013-02-03 11:16:00,
2013-02-03 06:18:00,32.3,30.8,29.88,SW,222,0.0,0.0,94,0.00,,,0.02,0,Wunderground v.1.15,2013-02-03 11:18:00,
2013-02-03 06:25:00,32.0,30.5,29.88,SW,222,0.0,0.0,94,0.00,,,0.02,0,Wunderground v.1.15,2013-02-03 11:25:00,
2013-02-03 06:26:00,32.0,30.5,29.88,SW,222,0.0,0.0,94,0.00,,,0.02,0,Wunderground v.1.15,2013-02-03 11:26:00,
2013-02-03 06:27:00,31.9,30.4,29.88,SW,222,0.0,0.0,94,0.00,,,0.02,0,Wunderground v.1.15,2013-02-03 11:27:00,
2013-02-03 06:29:00,31.8,30.3,29.88,SW,222,0.0,0.0,94,0.00,,,0.02,0,Wunderground v.1.15,2013-02-03 11:29:00,
2013-02-03 06:32:00,31.7,30.2,29.88,SW,222,0.0,0.0,94,0.00,,,0.02,0,Wunderground v.1.15,2013-02-03 11:32:00,
2013-02-03 06:34:00,31.6,30.1,29.89,SW,222,0.0,0.0,94,0.00,,,0.02,0,Wunderground v.1.15,2013-02-03 11:34:00,
2013-02-03 06:35:00,31.6,30.1,29.88,SW,222,0.0,0.0,94,0.00,,,0.02,0,Wunderground v.1.15,2013-02-03 11:35:00,
2013-02-03 06:37:00,31.6,30.1,29.88,SW,222,0.0,0.0,94,0.00,,,0.02,0,Wunderground v.1.15,2013-02-03 11:37:00,
2013-02-03 06:39:00,31.5,30.0,29.88,SW,222,0.0,0.0,94,0.00,,,0.02,0,Wunderground v.1.15,2013-02-03 11:39:00,
2013-02-03 06:41:00,31.5,30.0,29.88,SW,222,0.0,0.0,94,0.00,,,0.02,0,Wunderground v.1.15,2013-02-03 11:41:00,
2013-02-03 06:44:00,31.4,29.9,29.88,SW,222,0.0,0.0,94,0.00,,,0.02,0,Wunderground v.1.15,2013-02-03 11:44:00,
2013-02-03 06:46:00,31.4,29.9,29.88,SW,222,0.0,0.0,94,0.00,,,0.02,0,Wunderground v.1.15,2013-02-03 11:46:00,
2013-02-03 06:47:00,31.4,29.9,29.88,SW,222,0.0,0.0,94,0.00,,,0.02,0,Wunderground v.1.15,2013-02-03 11:47:00,
2013-02-03 06:50:00,31.3,29.8,29.88,SW,222,0.0,0.0,94,0.00,,,0.02,0,Wunderground v.1.15,2013-02-03 11:50:00,
2013-02-03 06:55:00,31.3,29.8,29.89,SW,222,0.0,0.0,94,0.00,,,0.02,0,Wunderground v.1.15,2013-02-03 11:55:00,
2013-02-03 06:56:00,31.3,29.8,29.89,SW,222,0.0,0.0,94,0.00,,,0.02,0,Wunderground v.1.15,2013-02-03 11:56:00,
2013-02-03 06:59:00,31.4,30.1,29.89,SW,222,0.0,0.0,95,0.00,,,0.02,0,Wunderground v.1.15,2013-02-03 11:59:00,
2013-02-03 07:01:00,31.5,30.2,29.89,SW,222,0.0,0.0,95,0.00,,,0.02,0,Wunderground v.1.15,2013-02-03 12:01:00,
2013-02-03 07:02:00,31.5,30.2,29.89,SW,222,0.0,0.0,95,0.00,,,0.02,0,Wunderground v.1.15,2013-02-03 12:02:00,
2013-02-03 07:06:00,31.5,30.2,29.89,SW,222,0.0,0.0,95,0.00,,,0.02,0,Wunderground v.1.15,2013-02-03 12:06:00,
2013-02-03 07:08:00,31.6,30.3,29.89,SW,222,0.0,0.0,95,0.00,,,0.02,5,Wunderground v.1.15,2013-02-03 12:08:00,
2013-02-03 07:09:00,31.6,30.3,29.89,SW,222,0.0,0.0,95,0.00,,,0.02,5,Wunderground v.1.15,2013-02-03 12:09:00,
2013-02-03 07:10:00,31.6,30.3,29.89,SW,222,0.0,0.0,95,0.00,,,0.02,7,Wunderground v.1.15,2013-02-03 12:10:00,
2013-02-03 07:15:00,31.8,30.5,29.89,SW,222,0.0,0.0,95,0.00,,,0.02,11,Wunderground v.1.15,2013-02-03 12:15:00,
2013-02-03 07:17:00,31.9,30.6,29.89,SW,222,0.0,0.0,95,0.00,,,0.02,11,Wunderground v.1.15,2013-02-03 12:17:00,
2013-02-03 07:19:00,32.1,30.8,29.89,SW,222,0.0,0.0,95,0.00,,,0.02,11,Wunderground v.1.15,2013-02-03 12:19:00,
2013-02-03 07:20:00,32.1,30.8,29.89,SW,222,0.0,0.0,95,0.00,,,0.02,12,Wunderground v.1.15,2013-02-03 12:20:00,
2013-02-03 07:25:00,32.5,31.2,29.89,SW,222,0.0,0.0,95,0.00,,,0.02,12,Wunderground v.1.15,2013-02-03 12:25:00,
2013-02-03 07:26:00,32.5,31.2,29.89,SW,222,0.0,0.0,95,0.00,,,0.02,12,Wunderground v.1.15,2013-02-03 12:26:00,
2013-02-03 07:27:00,32.6,31.6,29.89,SW,222,0.0,0.0,96,0.00,,,0.02,14,Wunderground v.1.15,2013-02-03 12:27:00,
2013-02-03 07:29:00,32.7,31.4,29.89,SW,222,0.0,0.0,95,0.00,,,0.02,14,Wunderground v.1.15,2013-02-03 12:29:00,
2013-02-03 07:32:00,32.9,31.6,29.90,SW,222,0.0,0.0,95,0.00,,,0.02,16,Wunderground v.1.15,2013-02-03 12:32:00,
2013-02-03 07:35:00,33.0,31.7,29.90,NNW,329,0.0,0.0,95,0.00,,,0.02,21,Wunderground v.1.15,2013-02-03 12:35:00,
2013-02-03 07:36:00,33.0,31.7,29.90,NNW,329,0.0,0.0,95,0.00,,,0.02,23,Wunderground v.1.15,2013-02-03 12:36:00,
2013-02-03 07:37:00,33.0,31.7,29.90,NNW,329,0.0,0.0,95,0.00,,,0.02,25,Wunderground v.1.15,2013-02-03 12:37:00,
2013-02-03 07:38:00,33.0,32.0,29.90,NNW,329,0.0,0.0,96,0.00,,,0.02,26,Wunderground v.1.15,2013-02-03 12:38:00,
2013-02-03 07:42:00,33.1,32.1,29.90,NNW,329,0.0,0.0,96,0.00,,,0.02,35,Wunderground v.1.15,2013-02-03 12:42:00,
2013-02-03 07:45:00,33.2,32.2,29.90,North,350,0.0,0.0,96,0.00,,,0.02,33,Wunderground v.1.15,2013-02-03 12:45:00,
2013-02-03 07:46:00,33.3,32.3,29.89,North,350,0.0,1.0,96,0.00,,,0.02,32,Wunderground v.1.15,2013-02-03 12:46:00,
2013-02-03 07:47:00,33.3,32.3,29.90,North,350,0.0,1.0,96,0.00,,,0.02,30,Wunderground v.1.15,2013-02-03 12:47:00,
2013-02-03 07:52:00,33.4,32.1,29.90,North,350,0.0,0.0,95,0.00,,,0.02,32,Wunderground v.1.15,2013-02-03 12:52:00,
2013-02-03 07:55:00,33.5,32.2,29.90,North,350,0.0,0.0,95,0.00,,,0.02,35,Wunderground v.1.15,2013-02-03 12:55:00,
2013-02-03 07:56:00,33.5,32.2,29.90,North,350,0.0,0.0,95,0.00,,,0.02,47,Wunderground v.1.15,2013-02-03 12:56:00,
2013-02-03 08:00:00,33.7,32.4,29.90,North,350,0.0,0.0,95,0.00,,,0.02,62,Wunderground v.1.15,2013-02-03 13:00:00,
2013-02-03 08:01:00,33.7,32.4,29.90,North,350,0.0,0.0,95,0.00,,,0.02,63,Wunderground v.1.15,2013-02-03 13:01:00,
2013-02-03 08:02:00,33.7,32.4,29.90,North,350,0.0,0.0,95,0.00,,,0.02,63,Wunderground v.1.15,2013-02-03 13:02:00,
2013-02-03 08:05:00,33.8,32.5,29.90,North,350,0.0,1.0,95,0.00,,,0.02,62,Wunderground v.1.15,2013-02-03 13:05:00,
2013-02-03 08:06:00,33.9,32.4,29.90,North,350,0.0,1.0,94,0.00,,,0.02,70,Wunderground v.1.15,2013-02-03 13:06:00,
2013-02-03 08:11:00,34.1,32.3,29.90,WNW,295,0.0,1.0,93,0.00,,,0.02,70,Wunderground v.1.15,2013-02-03 13:11:00,
2013-02-03 08:13:00,34.3,33.0,29.90,NNE,21,0.0,-999.0,93,-99.99,,,0.02,72,weatherlink.com 1.10,2013-02-03 13:13:00,
2013-02-03 08:14:00,34.4,32.3,29.90,West,277,0.0,2.0,92,0.00,,,0.02,79,Wunderground v.1.15,2013-02-03 13:14:00,
2013-02-03 08:15:00,34.4,32.0,29.90,NW,306,0.0,2.0,91,0.00,,,0.02,83,Wunderground v.1.15,2013-02-03 13:15:00,
2013-02-03 08:16:00,34.4,32.0,29.90,NW,306,0.0,2.0,91,0.00,,,0.02,86,Wunderground v.1.15,2013-02-03 13:16:00,
2013-02-03 08:17:00,34.4,31.8,29.90,NW,306,0.0,2.0,90,0.00,,,0.02,93,Wunderground v.1.15,2013-02-03 13:17:00,
2013-02-03 08:22:00,35.0,31.5,29.90,NE,44,1.0,1.0,87,0.00,,,0.02,128,Wunderground v.1.15,2013-02-03 13:22:00,
2013-02-03 08:25:00,35.3,31.2,29.90,NNW,335,1.0,1.0,85,0.00,,,0.02,120,Wunderground v.1.15,2013-02-03 13:25:00,
2013-02-03 08:28:00,35.7,31.0,29.90,North,355,0.0,-999.0,84,-99.99,,,0.02,102,weatherlink.com 1.10,2013-02-03 13:28:00,
2013-02-03 08:31:00,35.9,31.2,29.90,NE,51,1.0,6.0,83,0.00,,,0.02,113,Wunderground v.1.15,2013-02-03 13:31:00,
2013-02-03 08:32:00,36.0,31.0,29.90,NW,324,2.0,6.0,82,0.00,,,0.02,107,Wunderground v.1.15,2013-02-03 13:32:00,
2013-02-03 08:34:00,36.2,31.2,29.90,NNW,348,2.0,6.0,82,0.00,,,0.02,109,Wunderground v.1.15,2013-02-03 13:34:00,
2013-02-03 08:38:00,36.4,30.8,29.90,North,5,3.0,6.0,80,0.00,,,0.02,105,Wunderground v.1.15,2013-02-03 13:38:00,
2013-02-03 08:39:00,36.5,30.6,29.90,NNW,337,4.0,7.0,79,0.00,,,0.02,90,Wunderground v.1.15,2013-02-03 13:39:00,
2013-02-03 08:40:00,36.5,30.6,29.90,North,355,4.0,5.0,79,0.00,,,0.02,90,Wunderground v.1.15,2013-02-03 13:40:00,
2013-02-03 08:43:00,36.5,30.0,29.90,NNW,327,5.0,7.0,77,0.00,,,0.02,95,Wunderground v.1.15,2013-02-03 13:43:00,
2013-02-03 08:46:00,36.5,30.0,29.90,North,355,4.0,7.0,77,0.00,,,0.02,91,Wunderground v.1.15,2013-02-03 13:46:00,
2013-02-03 08:49:00,36.5,30.0,29.90,NNW,346,4.0,7.0,77,0.00,,,0.02,118,Wunderground v.1.15,2013-02-03 13:49:00,
2013-02-03 08:50:00,36.5,30.0,29.90,NNE,28,4.0,4.0,77,0.00,,,0.02,125,Wunderground v.1.15,2013-02-03 13:50:00,
2013-02-03 08:55:00,36.6,30.1,29.90,NNE,14,3.0,6.0,77,0.00,,,0.02,142,Wunderground v.1.15,2013-02-03 13:55:00,
2013-02-03 08:56:00,36.6,29.4,29.90,NNE,14,3.0,6.0,75,0.00,,,0.02,142,Wunderground v.1.15,2013-02-03 13:56:00,
2013-02-03 08:57:00,36.7,29.5,29.90,North,5,3.0,9.0,75,0.00,,,0.02,272,Wunderground v.1.15,2013-02-03 13:57:00,
2013-02-03 08:59:00,36.8,29.3,29.90,North,355,3.0,9.0,74,0.00,,,0.02,269,Wunderground v.1.15,2013-02-03 13:59:00,
2013-02-03 09:05:00,37.1,29.6,29.90,North,355,3.0,3.0,74,0.00,,,0.02,304,Wunderground v.1.15,2013-02-03 14:05:00,
2013-02-03 09:06:00,37.4,29.9,29.90,NNW,341,3.0,5.0,74,0.00,,,0.02,304,Wunderground v.1.15,2013-02-03 14:06:00,
2013-02-03 09:09:00,37.6,30.1,29.89,North,5,2.0,5.0,74,0.00,,,0.02,283,Wunderground v.1.15,2013-02-03 14:09:00,
2013-02-03 09:10:00,37.7,30.2,29.89,NNE,25,2.0,5.0,74,0.00,,,0.02,283,Wunderground v.1.15,2013-02-03 14:10:00,
2013-02-03 09:12:00,37.9,30.0,29.89,NNE,14,2.0,5.0,73,0.00,,,0.02,269,Wunderground v.1.15,2013-02-03 14:12:00,
2013-02-03 09:15:00,38.1,30.5,29.89,North,11,2.0,5.0,74,0.00,,,0.02,316,Wunderground v.1.15,2013-02-03 14:15:00,
2013-02-03 09:18:00,38.3,30.7,29.90,NNW,342,2.0,5.0,74,0.00,,,0.02,155,Wunderground v.1.15,2013-02-03 14:18:00,
2013-02-03 09:20:00,38.3,31.1,29.90,WNW,300,3.0,3.0,75,0.00,,,0.02,146,Wunderground v.1.15,2013-02-03 14:20:00,
2013-02-03 09:21:00,38.3,31.4,29.90,NNE,28,3.0,5.0,76,0.00,,,0.02,144,Wunderground v.1.15,2013-02-03 14:21:00,
2013-02-03 09:22:00,38.2,31.3,29.90,NNE,24,3.0,5.0,76,0.00,,,0.02,141,Wunderground v.1.15,2013-02-03 14:22:00,
2013-02-03 09:26:00,38.2,31.6,29.90,North,350,3.0,5.0,77,0.00,,,0.02,100,Wunderground v.1.15,2013-02-03 14:26:00,
2013-02-03 09:28:00,38.2,32.0,29.89,North,10,4.0,-999.0,77,-99.99,,,0.02,88,weatherlink.com 1.10,2013-02-03 14:28:00,
2013-02-03 09:31:00,38.1,31.2,29.89,NNW,335,3.0,7.0,76,0.00,,,0.02,91,Wunderground v.1.15,2013-02-03 14:31:00,
2013-02-03 09:33:00,37.9,31.0,29.89,NNE,20,4.0,7.0,76,0.00,,,0.02,132,Wunderground v.1.15,2013-02-03 14:33:00,
2013-02-03 09:34:00,37.9,31.0,29.89,NNE,19,4.0,7.0,76,0.00,,,0.02,132,Wunderground v.1.15,2013-02-03 14:34:00,
2013-02-03 09:35:00,37.9,31.3,29.89,NNE,18,4.0,7.0,77,0.00,,,0.02,149,Wunderground v.1.15,2013-02-03 14:35:00,
2013-02-03 09:36:00,37.9,31.7,29.89,NNE,19,4.0,7.0,78,0.00,,,0.02,165,Wunderground v.1.15,2013-02-03 14:36:00,
2013-02-03 09:39:00,37.9,31.7,29.89,NE,46,4.0,7.0,78,0.00,,,0.02,206,Wunderground v.1.15,2013-02-03 14:39:00,
2013-02-03 09:41:00,37.8,31.2,29.89,WNW,302,4.0,5.0,77,0.00,,,0.02,220,Wunderground v.1.15,2013-02-03 14:41:00,
2013-02-03 09:42:00,37.8,31.6,29.89,NNW,333,4.0,5.0,78,0.00,,,0.02,227,Wunderground v.1.15,2013-02-03 14:42:00,
2013-02-03 09:45:00,37.9,31.7,29.89,West,271,3.0,5.0,78,0.00,,,0.02,230,Wunderground v.1.15,2013-02-03 14:45:00,
2013-02-03 09:48:00,37.9,31.3,29.89,North,360,3.0,5.0,77,0.00,,,0.02,181,Wunderground v.1.15,2013-02-03 14:48:00,
2013-02-03 09:49:00,37.9,31.3,29.89,NNW,347,3.0,5.0,77,0.00,,,0.02,162,Wunderground v.1.15,2013-02-03 14:49:00,
2013-02-03 09:52:00,38.0,31.4,29.89,NNW,348,2.0,6.0,77,0.00,,,0.02,144,Wunderground v.1.15,2013-02-03 14:52:00,
2013-02-03 09:55:00,38.0,31.4,29.89,North,5,3.0,6.0,77,0.00,,,0.02,148,Wunderground v.1.15,2013-02-03 14:55:00,
2013-02-03 09:56:00,38.0,31.4,29.89,NNE,26,3.0,6.0,77,0.00,,,0.02,153,Wunderground v.1.15,2013-02-03 14:56:00,
2013-02-03 09:57:00,38.0,31.7,29.89,North,355,3.0,6.0,78,0.00,,,0.02,160,Wunderground v.1.15,2013-02-03 14:57:00,
2013-02-03 10:01:00,38.0,31.4,29.89,North,5,4.0,4.0,77,0.00,,,0.02,186,Wunderground v.1.15,2013-02-03 15:01:00,
2013-02-03 10:02:00,38.0,31.4,29.89,NNW,327,4.0,4.0,77,0.00,,,0.02,188,Wunderground v.1.15,2013-02-03 15:02:00,
2013-02-03 10:07:00,37.9,31.0,29.90,NW,310,4.0,4.0,76,0.00,,,0.02,167,Wunderground v.1.15,2013-02-03 15:07:00,
2013-02-03 10:08:00,37.9,31.0,29.89,North,355,4.0,4.0,76,0.00,,,0.02,174,Wunderground v.1.15,2013-02-03 15:08:00,
2013-02-03 10:11:00,37.9,31.0,29.90,North,360,3.0,3.0,76,0.00,,,0.02,378,Wunderground v.1.15,2013-02-03 15:11:00,
2013-02-03 10:15:00,38.4,31.8,29.90,WSW,254,3.0,4.0,77,0.00,,,0.02,302,Wunderground v.1.15,2013-02-03 15:15:00,
2013-02-03 10:18:00,38.7,31.5,29.90,NNE,16,3.0,4.0,75,0.00,,,0.02,348,Wunderground v.1.15,2013-02-03 15:18:00,
2013-02-03 10:19:00,38.8,31.6,29.90,NNW,345,3.0,4.0,75,0.00,,,0.02,327,Wunderground v.1.15,2013-02-03 15:19:00,
2013-02-03 10:21:00,38.9,31.6,29.90,NNW,348,3.0,5.0,75,0.00,,,0.02,302,Wunderground v.1.15,2013-02-03 15:21:00,
2013-02-03 10:25:00,39.2,30.9,29.90,NNE,12,3.0,5.0,72,0.00,,,0.02,243,Wunderground v.1.15,2013-02-03 15:25:00,
2013-02-03 10:27:00,39.2,30.9,29.90,NNW,334,4.0,5.0,72,0.00,,,0.02,221,Wunderground v.1.15,2013-02-03 15:27:00,
2013-02-03 10:28:00,39.2,30.9,29.90,NNE,33,4.0,5.0,72,0.00,,,0.02,241,Wunderground v.1.15,2013-02-03 15:28:00,
2013-02-03 10:34:00,39.2,31.0,29.90,NE,42,2.0,-999.0,72,-99.99,,,0.02,246,weatherlink.com 1.10,2013-02-03 15:34:00,
2013-02-03 10:35:00,39.3,31.4,29.90,NNW,341,3.0,4.0,73,0.00,,,0.02,163,Wunderground v.1.15,2013-02-03 15:35:00,
2013-02-03 10:37:00,39.5,31.6,29.90,West,273,3.0,4.0,73,0.00,,,0.02,223,Wunderground v.1.15,2013-02-03 15:37:00,
2013-02-03 10:38:00,39.5,31.6,29.90,North,360,3.0,4.0,73,0.00,,,0.02,251,Wunderground v.1.15,2013-02-03 15:38:00,
2013-02-03 10:42:00,39.7,31.4,29.90,North,355,4.0,7.0,72,0.00,,,0.02,257,Wunderground v.1.15,2013-02-03 15:42:00,
2013-02-03 10:46:00,39.6,31.3,29.90,NE,36,4.0,7.0,72,0.00,,,0.02,179,Wunderground v.1.15,2013-02-03 15:46:00,
2013-02-03 10:48:00,39.7,31.0,29.90,North,10,2.0,-999.0,72,-99.99,,,0.02,318,weatherlink.com 1.10,2013-02-03 15:48:00,
2013-02-03 10:49:00,39.7,31.8,29.90,NNE,27,4.0,7.0,73,0.00,,,0.02,301,Wunderground v.1.15,2013-02-03 15:49:00,
2013-02-03 10:51:00,39.9,31.9,29.90,North,360,3.0,5.0,73,0.00,,,0.02,301,Wunderground v.1.15,2013-02-03 15:51:00,
2013-02-03 10:52:00,39.9,31.9,29.90,NNE,18,3.0,5.0,73,0.00,,,0.02,290,Wunderground v.1.15,2013-02-03 15:52:00,
2013-02-03 10:56:00,40.3,32.3,29.89,North,5,3.0,8.0,73,0.00,,,0.02,172,Wunderground v.1.15,2013-02-03 15:56:00,
2013-02-03 10:58:00,40.4,32.1,29.90,NNW,347,3.0,8.0,72,0.00,,,0.02,146,Wunderground v.1.15,2013-02-03 15:58:00,
2013-02-03 11:00:00,40.3,32.0,29.89,NNW,337,4.0,7.0,72,0.00,,,0.02,125,Wunderground v.1.15,2013-02-03 16:00:00,
2013-02-03 11:05:00,40.1,31.8,29.90,NNW,340,5.0,7.0,72,0.00,,,0.02,183,Wunderground v.1.15,2013-02-03 16:05:00,
2013-02-03 11:06:00,39.8,31.5,29.90,North,9,5.0,7.0,72,0.00,,,0.02,204,Wunderground v.1.15,2013-02-03 16:06:00,
2013-02-03 11:07:00,39.8,31.8,29.90,NNE,21,5.0,9.0,73,0.00,,,0.02,195,Wunderground v.1.15,2013-02-03 16:07:00,
2013-02-03 11:09:00,39.7,32.1,29.90,North,360,5.0,9.0,74,0.00,,,0.02,197,Wunderground v.1.15,2013-02-03 16:09:00,
2013-02-03 11:15:00,39.8,32.2,29.90,NNW,337,5.0,8.0,74,0.00,,,0.02,174,Wunderground v.1.15,2013-02-03 16:15:00,
2013-02-03 11:16:00,39.7,31.8,29.90,NNW,338,5.0,8.0,73,0.00,,,0.02,174,Wunderground v.1.15,2013-02-03 16:16:00,
2013-02-03 11:17:00,39.7,31.8,29.89,North,355,5.0,8.0,73,0.00,,,0.02,236,Wunderground v.1.15,2013-02-03 16:17:00,
2013-02-03 11:21:00,39.6,32.0,29.89,NNW,345,5.0,5.0,74,0.00,,,0.02,135,Wunderground v.1.15,2013-02-03 16:21:00,
2013-02-03 11:25:00,39.6,32.0,29.89,NNE,21,4.0,6.0,74,0.00,,,0.02,155,Wunderground v.1.15,2013-02-03 16:25:00,
2013-02-03 11:26:00,39.6,32.0,29.89,NE,36,4.0,6.0,74,0.00,,,0.02,223,Wunderground v.1.15,2013-02-03 16:26:00,
2013-02-03 11:27:00,39.6,32.0,29.89,NW,321,4.0,6.0,74,0.00,,,0.02,190,Wunderground v.1.15,2013-02-03 16:27:00,
2013-02-03 11:30:00,39.7,31.8,29.89,North,355,4.0,6.0,73,0.00,,,0.02,165,Wunderground v.1.15,2013-02-03 16:30:00,
2013-02-03 11:32:00,39.6,31.3,29.89,NNW,346,4.0,6.0,72,0.00,,,0.02,169,Wunderground v.1.15,2013-02-03 16:32:00,
2013-02-03 11:35:00,39.3,31.0,29.89,North,355,4.0,6.0,72,0.00,,,0.02,183,Wunderground v.1.15,2013-02-03 16:35:00,
2013-02-03 11:38:00,39.3,31.7,29.89,NE,37,4.0,6.0,74,0.00,,,0.02,288,Wunderground v.1.15,2013-02-03 16:38:00,
2013-02-03 11:40:00,39.5,32.2,29.89,NE,40,4.0,5.0,75,0.00,,,0.02,415,Wunderground v.1.15,2013-02-03 16:40:00,
2013-02-03 11:45:00,39.8,31.2,29.89,NNW,327,4.0,7.0,71,0.00,,,0.02,315,Wunderground v.1.15,2013-02-03 16:45:00,
2013-02-03 11:46:00,39.8,31.5,29.88,North,5,4.0,7.0,72,0.00,,,0.02,315,Wunderground v.1.15,2013-02-03 16:46:00,
2013-02-03 11:50:00,39.8,31.5,29.89,West,269,4.0,5.0,72,0.00,,,0.02,272,Wunderground v.1.15,2013-02-03 16:50:00,
2013-02-03 11:51:00,39.8,31.5,29.88,WNW,286,4.0,5.0,72,0.00,,,0.02,287,Wunderground v.1.15,2013-02-03 16:51:00,
2013-02-03 11:52:00,39.8,31.5,29.88,NW,307,4.0,5.0,72,0.00,,,0.02,264,Wunderground v.1.15,2013-02-03 16:52:00,
2013-02-03 11:58:00,39.7,31.1,29.88,North,360,3.0,5.0,71,0.00,,,0.02,306,Wunderground v.1.15,2013-02-03 16:58:00,
2013-02-03 11:59:00,39.7,31.1,29.88,North,355,3.0,5.0,71,0.00,,,0.02,359,Wunderground v.1.15,2013-02-03 16:59:00,
2013-02-03 12:01:00,39.7,31.4,29.88,NW,321,3.0,3.0,72,0.00,,,0.02,339,Wunderground v.1.15,2013-02-03 17:01:00,
2013-02-03 12:02:00,39.7,31.4,29.88,WNW,296,3.0,5.0,72,0.00,,,0.02,339,Wunderground v.1.15,2013-02-03 17:02:00,
2013-02-03 12:07:00,39.9,31.9,29.88,NNE,17,3.0,8.0,73,0.00,,,0.02,258,Wunderground v.1.15,2013-02-03 17:07:00,
2013-02-03 12:08:00,40.0,31.7,29.88,NNE,28,3.0,8.0,72,0.00,,,0.02,258,Wunderground v.1.15,2013-02-03 17:08:00,
2013-02-03 12:09:00,40.0,31.7,29.88,North,355,3.0,8.0,72,0.00,,,0.02,258,Wunderground v.1.15,2013-02-03 17:09:00,
2013-02-03 12:12:00,40.0,31.0,29.87,NE,34,4.0,7.0,70,0.00,,,0.02,264,Wunderground v.1.15,2013-02-03 17:12:00,
2013-02-03 12:15:00,39.9,31.3,29.87,West,263,4.0,7.0,71,0.00,,,0.02,278,Wunderground v.1.15,2013-02-03 17:15:00,
2013-02-03 12:19:00,39.9,31.3,29.87,North,355,4.0,7.0,71,0.00,,,0.02,258,Wunderground v.1.15,2013-02-03 17:19:00,
2013-02-03 12:20:00,39.9,30.9,29.87,NNW,333,4.0,4.0,70,0.00,,,0.02,253,Wunderground v.1.15,2013-02-03 17:20:00,
2013-02-03 12:21:00,39.9,30.9,29.87,NW,325,4.0,5.0,70,0.00,,,0.02,248,Wunderground v.1.15,2013-02-03 17:21:00,
2013-02-03 12:25:00,39.8,30.8,29.87,North,360,4.0,5.0,70,0.00,,,0.02,234,Wunderground v.1.15,2013-02-03 17:25:00,
2013-02-03 12:26:00,39.8,30.8,29.87,NW,322,4.0,5.0,70,0.00,,,0.02,234,Wunderground v.1.15,2013-02-03 17:26:00,
2013-02-03 12:29:00,39.7,30.4,29.87,North,5,5.0,7.0,69,0.00,,,0.02,236,Wunderground v.1.15,2013-02-03 17:29:00,
2013-02-03 12:31:00,39.7,30.0,29.87,North,5,5.0,5.0,68,0.00,,,0.02,244,Wunderground v.1.15,2013-02-03 17:31:00,
2013-02-03 12:35:00,39.5,29.4,29.87,NNW,337,5.0,5.0,67,0.00,,,0.02,265,Wunderground v.1.15,2013-02-03 17:35:00,
2013-02-03 12:36:00,39.4,29.7,29.87,North,11,5.0,6.0,68,0.00,,,0.02,308,Wunderground v.1.15,2013-02-03 17:36:00,
2013-02-03 12:38:00,39.4,29.3,29.87,NW,309,5.0,6.0,67,0.00,,,0.02,301,Wunderground v.1.15,2013-02-03 17:38:00,
2013-02-03 12:41:00,39.4,29.7,29.86,NE,48,4.0,4.0,68,0.00,,,0.02,269,Wunderground v.1.15,2013-02-03 17:41:00,
2013-02-03 12:45:00,39.5,29.8,29.86,NE,48,4.0,6.0,68,0.00,,,0.02,267,Wunderground v.1.15,2013-02-03 17:45:00,
2013-02-03 12:46:00,39.6,29.9,29.86,NNW,344,4.0,6.0,68,0.00,,,0.02,267,Wunderground v.1.15,2013-02-03 17:46:00,
2013-02-03 12:47:00,39.6,29.9,29.87,NNW,342,4.0,6.0,68,0.00,,,0.02,466,Wunderground v.1.15,2013-02-03 17:47:00,
2013-02-03 12:49:00,39.7,29.6,29.86,North,9,4.0,8.0,67,0.00,,,0.02,526,Wunderground v.1.15,2013-02-03 17:49:00,
2013-02-03 12:55:00,40.2,30.8,29.86,North,360,4.0,7.0,69,0.00,,,0.02,533,Wunderground v.1.15,2013-02-03 17:55:00,
2013-02-03 12:56:00,40.2,30.5,29.86,North,360,4.0,7.0,68,0.00,,,0.02,533,Wunderground v.1.15,2013-02-03 17:56:00,
2013-02-03 12:59:00,40.4,31.0,29.85,WNW,294,4.0,7.0,69,0.00,,,0.02,417,Wunderground v.1.15,2013-02-03 17:59:00,
2013-02-03 13:01:00,40.6,31.6,29.85,NNE,26,3.0,4.0,70,0.00,,,0.02,417,Wunderground v.1.15,2013-02-03 18:01:00,
2013-02-03 13:06:00,40.9,31.1,29.85,North,360,3.0,5.0,68,0.00,,,0.02,559,Wunderground v.1.15,2013-02-03 18:06:00,
2013-02-03 13:07:00,40.9,31.5,29.85,North,355,4.0,5.0,69,0.00,,,0.02,362,Wunderground v.1.15,2013-02-03 18:07:00,
2013-02-03 13:09:00,41.0,33.0,29.85,NNE,14,4.0,7.0,73,0.00,,,0.02,362,Wunderground v.1.15,2013-02-03 18:09:00,
2013-02-03 13:12:00,41.0,31.6,29.85,North,355,5.0,5.0,69,0.00,,,0.02,221,Wunderground v.1.15,2013-02-03 18:12:00,
2013-02-03 13:15:00,41.0,31.2,29.85,NNW,341,4.0,5.0,68,0.00,,,0.02,482,Wunderground v.1.15,2013-02-03 18:15:00,
2013-02-03 13:16:00,41.0,33.0,29.85,NNW,341,4.0,5.0,73,0.00,,,0.02,482,Wunderground v.1.15,2013-02-03 18:16:00,
2013-02-03 13:20:00,41.1,31.3,29.84,WNW,294,4.0,4.0,68,0.00,,,0.02,663,Wunderground v.1.15,2013-02-03 18:20:00,
2013-02-03 13:22:00,41.3,31.9,29.84,North,349,4.0,5.0,69,0.00,,,0.02,631,Wunderground v.1.15,2013-02-03 18:22:00,
2013-02-03 13:25:00,41.6,31.4,29.84,North,5,4.0,5.0,67,0.00,,,0.02,570,Wunderground v.1.15,2013-02-03 18:25:00,
2013-02-03 13:27:00,41.8,31.6,29.83,NNE,26,4.0,5.0,67,0.00,,,0.02,563,Wunderground v.1.15,2013-02-03 18:27:00,
2013-02-03 13:29:00,41.9,31.7,29.83,NNE,22,3.0,5.0,67,0.00,,,0.02,548,Wunderground v.1.15,2013-02-03 18:29:00,
2013-02-03 13:30:00,41.9,31.7,29.84,NNE,21,3.0,3.0,67,0.00,,,0.02,548,Wunderground v.1.15,2013-02-03 18:30:00,
2013-02-03 13:35:00,41.7,31.2,29.84,SW,230,2.0,3.0,66,0.00,,,0.02,151,Wunderground v.1.15,2013-02-03 18:35:00,
2013-02-03 13:37:00,41.6,31.1,29.84,North,360,2.0,3.0,66,0.00,,,0.02,151,Wunderground v.1.15,2013-02-03 18:37:00,
2013-02-03 13:39:00,41.5,31.0,29.84,NNE,29,2.0,4.0,66,0.00,,,0.02,114,Wunderground v.1.15,2013-02-03 18:39:00,
2013-02-03 13:41:00,41.3,30.8,29.83,NNE,15,2.0,2.0,66,0.00,,,0.02,98,Wunderground v.1.15,2013-02-03 18:41:00,
2013-02-03 13:42:00,41.1,30.6,29.83,NNE,15,2.0,2.0,66,0.00,,,0.02,118,Wunderground v.1.15,2013-02-03 18:42:00,
2013-02-03 13:45:00,40.8,30.3,29.83,NNE,24,2.0,5.0,66,0.00,,,0.02,118,Wunderground v.1.15,2013-02-03 18:45:00,
2013-02-03 13:46:00,40.7,30.2,29.83,North,10,2.0,5.0,66,0.00,,,0.02,127,Wunderground v.1.15,2013-02-03 18:46:00,
2013-02-03 13:47:00,40.6,30.5,29.83,North,360,2.0,6.0,67,0.00,,,0.02,134,Wunderground v.1.15,2013-02-03 18:47:00,
2013-02-03 13:50:00,40.3,30.2,29.83,NNE,13,2.0,2.0,67,0.00,,,0.02,98,Wunderground v.1.15,2013-02-03 18:50:00,
2013-02-03 13:55:00,40.0,30.3,29.83,North,355,3.0,3.0,68,0.00,,,0.02,102,Wunderground v.1.15,2013-02-03 18:55:00,
2013-02-03 13:56:00,39.9,30.2,29.83,NNE,16,3.0,3.0,68,0.00,,,0.02,116,Wunderground v.1.15,2013-02-03 18:56:00,
2013-02-03 13:57:00,39.9,30.2,29.83,North,9,3.0,3.0,68,0.00,,,0.02,107,Wunderground v.1.15,2013-02-03 18:57:00,
2013-02-03 14:00:00,39.8,30.1,29.82,NW,325,3.0,3.0,68,0.00,,,0.02,109,Wunderground v.1.15,2013-02-03 19:00:00,
2013-02-03 14:02:00,39.8,30.1,29.83,NNW,346,2.0,5.0,68,0.00,,,0.02,156,Wunderground v.1.15,2013-02-03 19:02:00,
2013-02-03 14:05:00,39.8,30.1,29.83,NNW,346,2.0,5.0,68,0.00,,,0.02,179,Wunderground v.1.15,2013-02-03 19:05:00,
2013-02-03 14:07:00,39.8,30.5,29.82,North,360,2.0,5.0,69,0.00,,,0.02,149,Wunderground v.1.15,2013-02-03 19:07:00,
2013-02-03 14:08:00,39.8,30.5,29.82,NNE,24,2.0,5.0,69,0.00,,,0.02,102,Wunderground v.1.15,2013-02-03 19:08:00,
2013-02-03 14:11:00,39.7,30.0,29.82,North,5,3.0,6.0,68,0.00,,,0.02,93,Wunderground v.1.15,2013-02-03 19:11:00,
2013-02-03 14:12:00,39.7,30.0,29.82,NW,323,3.0,6.0,68,0.00,,,0.02,97,Wunderground v.1.15,2013-02-03 19:12:00,
2013-02-03 14:16:00,39.5,29.8,29.82,NNE,18,3.0,6.0,68,0.00,,,0.02,93,Wunderground v.1.15,2013-02-03 19:16:00,
2013-02-03 14:17:00,39.4,29.7,29.82,North,351,3.0,6.0,68,0.00,,,0.02,104,Wunderground v.1.15,2013-02-03 19:17:00,
2013-02-03 14:19:00,39.3,29.6,29.82,North,350,3.0,6.0,68,0.00,,,0.02,104,Wunderground v.1.15,2013-02-03 19:19:00,
2013-02-03 14:22:00,39.3,30.0,29.82,North,360,2.0,5.0,69,0.00,,,0.02,105,Wunderground v.1.15,2013-02-03 19:22:00,
2013-02-03 14:25:00,39.2,29.9,29.82,North,9,3.0,5.0,69,0.00,,,0.02,104,Wunderground v.1.15,2013-02-03 19:25:00,
2013-02-03 14:27:00,39.2,29.9,29.82,NNW,348,3.0,5.0,69,0.00,,,0.02,104,Wunderground v.1.15,2013-02-03 19:27:00,
2013-02-03 14:29:00,39.2,29.9,29.82,NE,34,3.0,5.0,69,0.00,,,0.02,93,Wunderground v.1.15,2013-02-03 19:29:00,
2013-02-03 14:30:00,39.1,29.8,29.82,NE,35,3.0,3.0,69,0.00,,,0.02,93,Wunderground v.1.15,2013-02-03 19:30:00,
2013-02-03 14:35:00,39.1,29.8,29.82,NNE,22,2.0,3.0,69,0.00,,,0.02,88,Wunderground v.1.15,2013-02-03 19:35:00,
2013-02-03 14:36:00,39.1,29.8,29.82,NNE,22,2.0,3.0,69,0.00,,,0.02,88,Wunderground v.1.15,2013-02-03 19:36:00,
2013-02-03 14:41:00,39.1,29.8,29.82,NNW,338,2.0,2.0,69,0.00,,,0.02,116,Wunderground v.1.15,2013-02-03 19:41:00,
2013-02-03 14:42:00,39.1,29.8,29.82,NNW,339,2.0,2.0,69,0.00,,,0.02,123,Wunderground v.1.15,2013-02-03 19:42:00,
2013-02-03 14:46:00,39.2,29.9,29.82,North,355,2.0,3.0,69,0.00,,,0.02,160,Wunderground v.1.15,2013-02-03 19:46:00,
2013-02-03 14:47:00,39.2,29.9,29.81,North,355,2.0,3.0,69,0.00,,,0.02,120,Wunderground v.1.15,2013-02-03 19:47:00,
2013-02-03 14:52:00,39.3,30.0,29.82,North,351,3.0,4.0,69,0.00,,,0.02,111,Wunderground v.1.15,2013-02-03 19:52:00,
2013-02-03 14:55:00,39.4,30.1,29.82,North,5,2.0,4.0,69,0.00,,,0.02,105,Wunderground v.1.15,2013-02-03 19:55:00,
2013-02-03 14:56:00,39.4,30.1,29.82,NNW,330,2.0,4.0,69,0.00,,,0.02,77,Wunderground v.1.15,2013-02-03 19:56:00,
2013-02-03 14:58:00,39.4,29.7,29.82,North,360,2.0,4.0,68,0.00,,,0.02,90,Wunderground v.1.15,2013-02-03 19:58:00,
2013-02-03 15:00:00,39.5,30.2,29.81,North,360,2.0,2.0,69,0.00,,,0.02,132,Wunderground v.1.15,2013-02-03 20:00:00,
2013-02-03 15:01:00,39.5,30.2,29.81,North,360,2.0,3.0,69,0.00,,,0.02,111,Wunderground v.1.15,2013-02-03 20:01:00,
2013-02-03 15:05:00,39.5,30.2,29.82,NNE,15,1.0,3.0,69,0.00,,,0.02,116,Wunderground v.1.15,2013-02-03 20:05:00,
2013-02-03 15:06:00,39.7,30.4,29.82,North,355,2.0,3.0,69,0.00,,,0.02,121,Wunderground v.1.15,2013-02-03 20:06:00,
2013-02-03 15:10:00,40.0,30.6,29.81,North,355,2.0,2.0,69,0.00,,,0.02,93,Wunderground v.1.15,2013-02-03 20:10:00,
2013-02-03 15:11:00,40.0,30.3,29.82,North,360,2.0,4.0,68,0.00,,,0.02,93,Wunderground v.1.15,2013-02-03 20:11:00,
2013-02-03 15:12:00,40.1,30.4,29.82,North,5,2.0,4.0,68,0.00,,,0.02,84,Wunderground v.1.15,2013-02-03 20:12:00,
2013-02-03 15:15:00,40.2,30.8,29.82,North,5,2.0,4.0,69,0.00,,,0.02,90,Wunderground v.1.15,2013-02-03 20:15:00,
2013-02-03 15:17:00,40.3,30.6,29.81,North,11,2.0,4.0,68,0.00,,,0.02,97,Wunderground v.1.15,2013-02-03 20:17:00,
2013-02-03 15:18:00,40.3,30.6,29.82,North,360,2.0,4.0,68,0.00,,,0.02,100,Wunderground v.1.15,2013-02-03 20:18:00,
2013-02-03 15:21:00,40.4,30.7,29.81,NNW,345,2.0,5.0,68,0.00,,,0.02,77,Wunderground v.1.15,2013-02-03 20:21:00,
2013-02-03 15:22:00,40.4,30.7,29.82,NNW,345,2.0,5.0,68,0.00,,,0.02,60,Wunderground v.1.15,2013-02-03 20:22:00,
2013-02-03 15:28:00,40.6,30.9,29.81,NNW,345,1.0,5.0,68,0.00,,,0.02,47,Wunderground v.1.15,2013-02-03 20:28:00,
2013-02-03 15:29:00,40.7,31.0,29.81,NNW,345,1.0,5.0,68,0.00,,,0.02,46,Wunderground v.1.15,2013-02-03 20:29:00,
2013-02-03 15:30:00,40.7,30.6,29.81,NNW,345,1.0,1.0,67,0.00,,,0.02,44,Wunderground v.1.15,2013-02-03 20:30:00,
2013-02-03 15:35:00,40.8,30.7,29.81,NNW,344,0.0,1.0,67,0.00,,,0.02,46,Wunderground v.1.15,2013-02-03 20:35:00,
2013-02-03 15:37:00,40.8,30.7,29.81,NNW,344,0.0,1.0,67,0.00,,,0.02,72,Wunderground v.1.15,2013-02-03 20:37:00,
2013-02-03 15:40:00,40.9,30.8,29.81,NNW,345,0.0,1.0,67,0.00,,,0.02,88,Wunderground v.1.15,2013-02-03 20:40:00,
2013-02-03 15:42:00,40.9,30.8,29.81,NNW,332,0.0,5.0,67,0.00,,,0.02,76,Wunderground v.1.15,2013-02-03 20:42:00,
2013-02-03 15:45:00,40.9,30.4,29.82,NW,316,0.0,5.0,66,0.00,,,0.02,44,Wunderground v.1.15,2013-02-03 20:45:00,
2013-02-03 15:48:00,41.0,30.9,29.82,WNW,283,1.0,5.0,67,0.00,,,0.02,42,Wunderground v.1.15,2013-02-03 20:48:00,
2013-02-03 15:52:00,41.2,30.7,29.82,SW,221,1.0,1.0,66,0.00,,,0.02,40,Wunderground v.1.15,2013-02-03 20:52:00,
2013-02-03 15:55:00,41.3,30.8,29.82,SW,221,1.0,1.0,66,0.00,,,0.02,39,Wunderground v.1.15,2013-02-03 20:55:00,
2013-02-03 15:59:00,41.4,30.9,29.82,SW,215,1.0,2.0,66,0.00,,,0.02,33,Wunderground v.1.15,2013-02-03 20:59:00,
2013-02-03 16:01:00,41.5,31.4,29.82,SW,216,1.0,1.0,67,0.00,,,0.02,40,Wunderground v.1.15,2013-02-03 21:01:00,
2013-02-03 16:05:00,41.5,31.0,29.82,North,350,1.0,1.0,66,0.00,,,0.02,49,Wunderground v.1.15,2013-02-03 21:05:00,
2013-02-03 16:06:00,41.6,31.1,29.82,NNW,345,1.0,2.0,66,0.00,,,0.02,49,Wunderground v.1.15,2013-02-03 21:06:00,
2013-02-03 16:07:00,41.5,31.0,29.82,NNW,340,1.0,2.0,66,0.00,,,0.02,54,Wunderground v.1.15,2013-02-03 21:07:00,
2013-02-03 16:08:00,41.6,31.1,29.82,NNW,327,1.0,4.0,66,0.00,,,0.02,63,Wunderground v.1.15,2013-02-03 21:08:00,
2013-02-03 16:15:00,41.3,31.2,29.83,NW,309,2.0,4.0,67,0.00,,,0.02,77,Wunderground v.1.15,2013-02-03 21:15:00,
2013-02-03 16:16:00,41.3,31.5,29.83,NW,309,2.0,4.0,68,0.00,,,0.02,62,Wunderground v.1.15,2013-02-03 21:16:00,
2013-02-03 16:17:00,41.3,31.5,29.83,NW,326,2.0,5.0,68,0.00,,,0.02,53,Wunderground v.1.15,2013-02-03 21:17:00,
2013-02-03 16:22:00,40.9,30.8,29.82,NNW,334,2.0,2.0,67,0.00,,,0.02,39,Wunderground v.1.15,2013-02-03 21:22:00,
2013-02-03 16:25:00,40.7,31.0,29.83,NNE,15,3.0,4.0,68,0.00,,,0.02,40,Wunderground v.1.15,2013-02-03 21:25:00,
2013-02-03 16:26:00,40.7,31.0,29.83,NNE,15,3.0,4.0,68,0.00,,,0.02,40,Wunderground v.1.15,2013-02-03 21:26:00,
2013-02-03 16:29:00,40.5,30.8,29.82,North,5,2.0,4.0,68,0.00,,,0.02,28,Wunderground v.1.15,2013-02-03 21:29:00,
2013-02-03 16:32:00,40.3,30.9,29.83,North,5,2.0,3.0,69,0.00,,,0.02,28,Wunderground v.1.15,2013-02-03 21:32:00,
2013-02-03 16:35:00,40.1,31.1,29.83,North,5,2.0,3.0,70,0.00,,,0.02,23,Wunderground v.1.15,2013-02-03 21:35:00,
2013-02-03 16:36:00,40.1,31.1,29.83,North,5,2.0,3.0,70,0.00,,,0.02,23,Wunderground v.1.15,2013-02-03 21:36:00,
2013-02-03 16:37:00,40.0,31.0,29.83,North,360,1.0,3.0,70,0.00,,,0.02,23,Wunderground v.1.15,2013-02-03 21:37:00,
2013-02-03 16:41:00,39.8,30.8,29.83,North,5,1.0,4.0,70,0.00,,,0.02,25,Wunderground v.1.15,2013-02-03 21:41:00,
2013-02-03 16:46:00,39.6,30.6,29.83,North,5,1.0,4.0,70,0.00,,,0.02,23,Wunderground v.1.15,2013-02-03 21:46:00,
2013-02-03 16:50:00,39.4,30.8,29.83,North,5,0.0,1.0,71,0.00,,,0.02,19,Wunderground v.1.15,2013-02-03 21:50:00,
2013-02-03 16:51:00,39.4,30.8,29.83,North,360,0.0,1.0,71,0.00,,,0.02,21,Wunderground v.1.15,2013-02-03 21:51:00,
2013-02-03 16:55:00,39.1,30.5,29.83,North,360,0.0,1.0,71,0.00,,,0.02,30,Wunderground v.1.15,2013-02-03 21:55:00,
2013-02-03 16:56:00,39.1,30.5,29.83,North,5,0.0,1.0,71,0.00,,,0.02,28,Wunderground v.1.15,2013-02-03 21:56:00,
2013-02-03 16:57:00,39.0,30.7,29.83,North,360,0.0,2.0,72,0.00,,,0.02,26,Wunderground v.1.15,2013-02-03 21:57:00,
2013-02-03 17:02:00,38.8,30.5,29.83,North,360,0.0,1.0,72,0.00,,,0.02,21,Wunderground v.1.15,2013-02-03 22:02:00,
2013-02-03 17:03:00,38.8,30.0,29.83,North,5,0.0,-999.0,72,-99.99,,,0.02,19,weatherlink.com 1.10,2013-02-03 22:03:00,
2013-02-03 17:05:00,38.8,30.9,29.83,North,360,0.0,1.0,73,0.00,,,0.02,19,Wunderground v.1.15,2013-02-03 22:05:00,
2013-02-03 17:07:00,38.6,30.7,29.83,North,5,0.0,1.0,73,0.00,,,0.02,18,Wunderground v.1.15,2013-02-03 22:07:00,
2013-02-03 17:08:00,38.6,30.7,29.83,North,5,0.0,1.0,73,0.00,,,0.02,16,Wunderground v.1.15,2013-02-03 22:08:00,
2013-02-03 17:10:00,38.5,30.6,29.83,North,5,0.0,0.0,73,0.00,,,0.02,14,Wunderground v.1.15,2013-02-03 22:10:00,
2013-02-03 17:15:00,38.4,30.5,29.82,North,360,0.0,1.0,73,0.00,,,0.02,12,Wunderground v.1.15,2013-02-03 22:15:00,
2013-02-03 17:16:00,38.3,30.4,29.82,North,5,0.0,1.0,73,0.00,,,0.02,12,Wunderground v.1.15,2013-02-03 22:16:00,
2013-02-03 17:17:00,38.3,30.4,29.82,North,360,0.0,1.0,73,0.00,,,0.02,11,Wunderground v.1.15,2013-02-03 22:17:00,
2013-02-03 17:20:00,38.2,30.6,29.82,North,360,1.0,1.0,74,0.00,,,0.02,11,Wunderground v.1.15,2013-02-03 22:20:00,
2013-02-03 17:21:00,38.2,30.6,29.83,North,5,1.0,1.0,74,0.00,,,0.02,9,Wunderground v.1.15,2013-02-03 22:21:00,
2013-02-03 17:26:00,38.0,30.4,29.83,NE,49,1.0,1.0,74,0.00,,,0.02,5,Wunderground v.1.15,2013-02-03 22:26:00,
2013-02-03 17:30:00,37.8,30.6,29.83,NE,49,1.0,1.0,75,0.00,,,0.02,5,Wunderground v.1.15,2013-02-03 22:30:00,
2013-02-03 17:33:00,37.7,30.0,29.84,NE,49,0.0,-999.0,75,-99.99,,,0.02,0,weatherlink.com 1.10,2013-02-03 22:33:00,
2013-02-03 17:35:00,37.6,30.7,29.84,NE,49,0.0,1.0,76,0.00,,,0.02,0,Wunderground v.1.15,2013-02-03 22:35:00,
2013-02-03 17:36:00,37.5,30.6,29.84,NE,49,0.0,1.0,76,0.00,,,0.02,0,Wunderground v.1.15,2013-02-03 22:36:00,
2013-02-03 17:37:00,37.5,30.6,29.84,NE,49,0.0,1.0,76,0.00,,,0.02,0,Wunderground v.1.15,2013-02-03 22:37:00,
2013-02-03 17:42:00,37.1,30.2,29.84,NE,49,0.0,0.0,76,0.00,,,0.02,0,Wunderground v.1.15,2013-02-03 22:42:00,
2013-02-03 17:46:00,36.8,30.3,29.84,NE,49,0.0,0.0,77,0.00,,,0.02,0,Wunderground v.1.15,2013-02-03 22:46:00,
2013-02-03 17:47:00,36.8,30.3,29.84,NE,49,0.0,0.0,77,0.00,,,0.02,0,Wunderground v.1.15,2013-02-03 22:47:00,
2013-02-03 17:51:00,36.5,30.0,29.84,NE,49,0.0,0.0,77,0.00,,,0.02,0,Wunderground v.1.15,2013-02-03 22:51:00,
2013-02-03 17:52:00,36.5,30.0,29.84,NE,49,0.0,0.0,77,0.00,,,0.02,0,Wunderground v.1.15,2013-02-03 22:52:00,
2013-02-03 17:56:00,36.3,30.1,29.83,NE,49,0.0,0.0,78,0.00,,,0.02,0,Wunderground v.1.15,2013-02-03 22:56:00,
2013-02-03 17:57:00,36.2,30.0,29.84,NE,49,0.0,0.0,78,0.00,,,0.02,0,Wunderground v.1.15,2013-02-03 22:57:00,
2013-02-03 17:58:00,36.2,30.0,29.84,NE,49,0.0,0.0,78,0.00,,,0.02,0,Wunderground v.1.15,2013-02-03 22:58:00,
2013-02-03 18:02:00,36.0,30.1,29.84,NE,49,0.0,0.0,79,0.00,,,0.02,0,Wunderground v.1.15,2013-02-03 23:02:00,
2013-02-03 18:05:00,35.9,30.0,29.84,NE,49,0.0,0.0,79,0.00,,,0.02,0,Wunderground v.1.15,2013-02-03 23:05:00,
2013-02-03 18:06:00,35.8,29.9,29.85,NE,49,0.0,0.0,79,0.00,,,0.02,0,Wunderground v.1.15,2013-02-03 23:06:00,
2013-02-03 18:12:00,35.7,30.1,29.85,NE,49,0.0,0.0,80,0.00,,,0.02,0,Wunderground v.1.15,2013-02-03 23:12:00,
2013-02-03 18:15:00,35.7,30.1,29.85,NE,49,0.0,0.0,80,0.00,,,0.02,0,Wunderground v.1.15,2013-02-03 23:15:00,
2013-02-03 18:18:00,35.7,30.1,29.85,NE,49,0.0,0.0,80,0.00,,,0.02,0,Wunderground v.1.15,2013-02-03 23:18:00,
2013-02-03 18:20:00,35.7,30.1,29.85,NE,49,0.0,0.0,80,0.00,,,0.02,0,Wunderground v.1.15,2013-02-03 23:20:00,
2013-02-03 18:25:00,35.7,30.4,29.86,NE,49,0.0,0.0,81,0.00,,,0.02,0,Wunderground v.1.15,2013-02-03 23:25:00,
2013-02-03 18:27:00,35.6,30.3,29.85,NE,49,0.0,0.0,81,0.00,,,0.02,0,Wunderground v.1.15,2013-02-03 23:27:00,
2013-02-03 18:31:00,35.6,30.3,29.85,NE,49,0.0,0.0,81,0.00,,,0.02,0,Wunderground v.1.15,2013-02-03 23:31:00,
2013-02-03 18:35:00,35.4,30.1,29.86,NE,49,0.0,0.0,81,0.00,,,0.02,0,Wunderground v.1.15,2013-02-03 23:35:00,
2013-02-03 18:36:00,35.4,30.1,29.86,NE,49,0.0,0.0,81,0.00,,,0.02,0,Wunderground v.1.15,2013-02-03 23:36:00,
2013-02-03 18:41:00,35.3,30.1,29.86,NE,49,0.0,0.0,81,0.00,,,0.02,0,Wunderground v.1.15,2013-02-03 23:41:00,
2013-02-03 18:42:00,35.3,30.1,29.86,NE,49,0.0,0.0,81,0.00,,,0.02,0,Wunderground v.1.15,2013-02-03 23:42:00,
2013-02-03 18:48:00,35.2,30.3,29.86,NE,49,0.0,0.0,82,0.00,,,0.02,0,Wunderground v.1.15,2013-02-03 23:48:00,
2013-02-03 18:49:00,35.1,30.2,29.86,NE,49,0.0,0.0,82,0.00,,,0.02,0,Wunderground v.1.15,2013-02-03 23:49:00,
2013-02-03 18:55:00,35.2,30.6,29.86,NE,49,0.0,0.0,83,0.00,,,0.02,0,Wunderground v.1.15,2013-02-03 23:55:00,
2013-02-03 18:56:00,35.2,30.6,29.86,NE,49,0.0,0.0,83,0.00,,,0.02,0,Wunderground v.1.15,2013-02-03 23:56:00,
2013-02-03 18:58:00,35.2,30.6,29.86,NE,49,0.0,0.0,83,0.00,,,0.02,0,Wunderground v.1.15,2013-02-03 23:58:00,
2013-02-03 18:59:00,35.2,30.6,29.86,NE,49,0.0,0.0,83,0.00,,,0.02,0,Wunderground v.1.15,2013-02-03 23:59:00,
2013-02-03 19:05:00,35.1,30.5,29.86,NE,49,0.0,0.0,83,0.00,,,0.02,0,Wunderground v.1.15,2013-02-04 00:05:00,
2013-02-03 19:07:00,35.1,30.0,29.86,NE,49,0.0,-999.0,83,-99.99,,,0.02,0,weatherlink.com 1.10,2013-02-04 00:07:00,
2013-02-03 19:08:00,35.1,30.5,29.86,NE,49,0.0,0.0,83,0.00,,,0.02,0,Wunderground v.1.15,2013-02-04 00:08:00,
2013-02-03 19:10:00,35.1,30.5,29.86,NE,49,0.0,0.0,83,0.00,,,0.02,0,Wunderground v.1.15,2013-02-04 00:10:00,
2013-02-03 19:15:00,35.1,30.8,29.86,NE,49,0.0,0.0,84,0.00,,,0.02,0,Wunderground v.1.15,2013-02-04 00:15:00,
2013-02-03 19:16:00,35.1,30.8,29.86,NE,49,0.0,0.0,84,0.00,,,0.02,0,Wunderground v.1.15,2013-02-04 00:16:00,
2013-02-03 19:17:00,35.1,30.8,29.86,NE,49,0.0,0.0,84,0.00,,,0.02,0,Wunderground v.1.15,2013-02-04 00:17:00,
2013-02-03 19:18:00,35.1,30.8,29.86,NE,49,0.0,0.0,84,0.00,,,0.02,0,Wunderground v.1.15,2013-02-04 00:18:00,
2013-02-03 19:25:00,35.2,30.9,29.86,NE,49,0.0,0.0,84,0.00,,,0.02,0,Wunderground v.1.15,2013-02-04 00:25:00,
2013-02-03 19:26:00,35.2,30.9,29.86,NE,49,0.0,0.0,84,0.00,,,0.02,0,Wunderground v.1.15,2013-02-04 00:26:00,
2013-02-03 19:27:00,35.2,30.9,29.86,NE,49,0.0,0.0,84,0.00,,,0.02,0,Wunderground v.1.15,2013-02-04 00:27:00,
2013-02-03 19:32:00,35.3,30.9,29.87,NE,49,0.0,0.0,84,0.00,,,0.02,0,Wunderground v.1.15,2013-02-04 00:32:00,
2013-02-03 19:35:00,35.3,30.9,29.86,NE,49,0.0,0.0,84,0.00,,,0.02,0,Wunderground v.1.15,2013-02-04 00:35:00,
2013-02-03 19:36:00,35.3,30.9,29.86,NE,49,0.0,0.0,84,0.00,,,0.02,0,Wunderground v.1.15,2013-02-04 00:36:00,
2013-02-03 19:42:00,35.3,30.9,29.87,NE,49,0.0,0.0,84,0.00,,,0.02,0,Wunderground v.1.15,2013-02-04 00:42:00,
2013-02-03 19:45:00,35.3,30.9,29.87,NE,49,0.0,0.0,84,0.00,,,0.02,0,Wunderground v.1.15,2013-02-04 00:45:00,
2013-02-03 19:46:00,35.3,30.9,29.86,NE,49,0.0,0.0,84,0.00,,,0.02,0,Wunderground v.1.15,2013-02-04 00:46:00,
2013-02-03 19:50:00,35.2,30.9,29.87,NE,49,0.0,0.0,84,0.00,,,0.02,0,Wunderground v.1.15,2013-02-04 00:50:00,
2013-02-03 19:52:00,35.2,30.9,29.87,NE,49,0.0,0.0,84,0.00,,,0.02,0,Wunderground v.1.15,2013-02-04 00:52:00,
2013-02-03 19:56:00,35.0,30.7,29.87,NE,49,0.0,0.0,84,0.00,,,0.02,0,Wunderground v.1.15,2013-02-04 00:56:00,
2013-02-03 19:57:00,35.0,30.7,29.87,NE,49,0.0,0.0,84,0.00,,,0.02,0,Wunderground v.1.15,2013-02-04 00:57:00,
2013-02-03 19:59:00,35.0,30.7,29.87,NE,49,0.0,0.0,84,0.00,,,0.02,0,Wunderground v.1.15,2013-02-04 00:59:00,
2013-02-03 20:00:00,34.9,30.6,29.87,NE,49,0.0,0.0,84,0.00,,,0.02,0,Wunderground v.1.15,2013-02-04 01:00:00,
2013-02-03 20:05:00,34.8,30.5,29.87,NE,49,0.0,0.0,84,0.00,,,0.02,0,Wunderground v.1.15,2013-02-04 01:05:00,
2013-02-03 20:06:00,34.7,30.4,29.87,NE,49,0.0,0.0,84,0.00,,,0.02,0,Wunderground v.1.15,2013-02-04 01:06:00,
2013-02-03 20:07:00,34.7,30.4,29.87,NE,49,0.0,0.0,84,0.00,,,0.02,0,Wunderground v.1.15,2013-02-04 01:07:00,
2013-02-03 20:08:00,34.7,30.4,29.87,NE,49,0.0,0.0,84,0.00,,,0.02,0,Wunderground v.1.15,2013-02-04 01:08:00,
2013-02-03 20:12:00,34.6,30.6,29.87,NE,49,0.0,0.0,85,0.00,,,0.02,0,Wunderground v.1.15,2013-02-04 01:12:00,
2013-02-03 20:15:00,34.6,30.6,29.87,NE,49,0.0,0.0,85,0.00,,,0.02,0,Wunderground v.1.15,2013-02-04 01:15:00,
2013-02-03 20:17:00,34.6,30.6,29.87,NE,49,0.0,0.0,85,0.00,,,0.02,0,Wunderground v.1.15,2013-02-04 01:17:00,
2013-02-03 20:18:00,34.6,30.6,29.87,NE,49,0.0,0.0,85,0.00,,,0.02,0,Wunderground v.1.15,2013-02-04 01:18:00,
2013-02-03 20:22:00,34.5,30.7,29.87,NE,49,0.0,0.0,86,0.00,,,0.02,0,Wunderground v.1.15,2013-02-04 01:22:00,
2013-02-03 20:25:00,34.4,30.4,29.87,NE,49,0.0,0.0,85,0.00,,,0.02,0,Wunderground v.1.15,2013-02-04 01:25:00,
2013-02-03 20:26:00,34.4,30.6,29.87,NE,49,0.0,0.0,86,0.00,,,0.02,0,Wunderground v.1.15,2013-02-04 01:26:00,
2013-02-03 20:27:00,34.4,30.6,29.87,NE,49,0.0,0.0,86,0.00,,,0.02,0,Wunderground v.1.15,2013-02-04 01:27:00,
2013-02-03 20:32:00,34.4,30.6,29.87,NE,49,0.0,0.0,86,0.00,,,0.02,0,Wunderground v.1.15,2013-02-04 01:32:00,
2013-02-03 20:35:00,34.1,30.4,29.87,NE,49,0.0,0.0,86,0.00,,,0.02,0,Wunderground v.1.15,2013-02-04 01:35:00,
2013-02-03 20:36:00,34.1,30.4,29.87,NE,49,0.0,0.0,86,0.00,,,0.02,0,Wunderground v.1.15,2013-02-04 01:36:00,
2013-02-03 20:38:00,33.9,30.2,29.87,NE,49,0.0,0.0,86,0.00,,,0.02,0,Wunderground v.1.15,2013-02-04 01:38:00,
2013-02-03 20:42:00,33.8,31.7,29.87,NE,49,0.0,0.0,92,0.00,,,0.02,0,Wunderground v.1.15,2013-02-04 01:42:00,
2013-02-03 20:45:00,33.6,30.1,29.87,NE,49,0.0,0.0,87,0.00,,,0.02,0,Wunderground v.1.15,2013-02-04 01:45:00,
2013-02-03 20:46:00,33.6,30.1,29.87,NE,49,0.0,0.0,87,0.00,,,0.02,0,Wunderground v.1.15,2013-02-04 01:46:00,
2013-02-03 20:48:00,33.5,30.0,29.87,NE,49,0.0,0.0,87,0.00,,,0.02,0,Wunderground v.1.15,2013-02-04 01:48:00,
2013-02-03 20:49:00,33.4,29.9,29.87,NE,49,0.0,0.0,87,0.00,,,0.02,0,Wunderground v.1.15,2013-02-04 01:49:00,
2013-02-03 20:51:00,33.3,29.8,29.87,NE,49,0.0,0.0,87,0.00,,,0.02,0,Wunderground v.1.15,2013-02-04 01:51:00,
2013-02-03 20:55:00,33.1,29.7,29.87,NE,49,0.0,0.0,87,0.00,,,0.02,0,Wunderground v.1.15,2013-02-04 01:55:00,
2013-02-03 20:57:00,33.0,29.6,29.87,NE,49,0.0,0.0,87,0.00,,,0.02,0,Wunderground v.1.15,2013-02-04 01:57:00,
2013-02-03 21:05:00,32.6,29.2,29.87,NE,49,0.0,0.0,87,0.00,,,0.02,0,Wunderground v.1.15,2013-02-04 02:05:00,
2013-02-03 21:06:00,32.5,29.3,29.88,NE,49,0.0,0.0,88,0.00,,,0.02,0,Wunderground v.1.15,2013-02-04 02:06:00,
2013-02-03 21:07:00,32.5,29.3,29.88,NE,49,0.0,0.0,88,0.00,,,0.02,0,Wunderground v.1.15,2013-02-04 02:07:00,
2013-02-03 21:10:00,32.3,29.1,29.88,NE,49,0.0,0.0,88,0.00,,,0.02,0,Wunderground v.1.15,2013-02-04 02:10:00,
2013-02-03 21:12:00,32.2,29.0,29.88,NE,49,0.0,0.0,88,0.00,,,0.02,0,Wunderground v.1.15,2013-02-04 02:12:00,
2013-02-03 21:15:00,32.1,28.9,29.88,NE,49,0.0,0.0,88,0.00,,,0.02,0,Wunderground v.1.15,2013-02-04 02:15:00,
2013-02-03 21:16:00,32.1,28.9,29.88,NE,49,0.0,0.0,88,0.00,,,0.02,0,Wunderground v.1.15,2013-02-04 02:16:00,
2013-02-03 21:21:00,31.9,29.0,29.88,NE,49,0.0,-999.0,89,-99.99,,,0.02,0,weatherlink.com 1.10,2013-02-04 02:21:00,
2013-02-03 21:25:00,31.8,28.9,29.88,NE,49,0.0,0.0,89,0.00,,,0.02,0,Wunderground v.1.15,2013-02-04 02:25:00,
2013-02-03 21:27:00,31.8,28.9,29.88,NE,49,0.0,0.0,89,0.00,,,0.02,0,Wunderground v.1.15,2013-02-04 02:27:00,
2013-02-03 21:29:00,31.7,28.8,29.89,NE,49,0.0,0.0,89,0.00,,,0.02,0,Wunderground v.1.15,2013-02-04 02:29:00,
2013-02-03 21:32:00,31.6,28.7,29.89,NE,49,0.0,0.0,89,0.00,,,0.02,0,Wunderground v.1.15,2013-02-04 02:32:00,
2013-02-03 21:35:00,31.6,29.0,29.89,NE,49,0.0,0.0,90,0.00,,,0.02,0,Wunderground v.1.15,2013-02-04 02:35:00,
2013-02-03 21:36:00,31.6,29.0,29.89,NE,49,0.0,0.0,90,0.00,,,0.02,0,Wunderground v.1.15,2013-02-04 02:36:00,
2013-02-03 21:38:00,31.5,28.9,29.89,NE,49,0.0,0.0,90,0.00,,,0.02,0,Wunderground v.1.15,2013-02-04 02:38:00,
2013-02-03 21:42:00,31.5,28.9,29.89,NE,49,0.0,0.0,90,0.00,,,0.02,0,Wunderground v.1.15,2013-02-04 02:42:00,
2013-02-03 21:45:00,31.6,29.0,29.89,NE,49,0.0,0.0,90,0.00,,,0.02,0,Wunderground v.1.15,2013-02-04 02:45:00,
2013-02-03 21:46:00,31.6,29.0,29.89,NE,49,0.0,0.0,90,0.00,,,0.02,0,Wunderground v.1.15,2013-02-04 02:46:00,
2013-02-03 21:47:00,31.6,29.0,29.89,NE,49,0.0,0.0,90,0.00,,,0.02,0,Wunderground v.1.15,2013-02-04 02:47:00,
2013-02-03 21:52:00,31.7,29.1,29.89,NE,49,0.0,0.0,90,0.00,,,0.02,0,Wunderground v.1.15,2013-02-04 02:52:00,
2013-02-03 21:55:00,31.7,29.1,29.89,NE,49,0.0,0.0,90,0.00,,,0.02,0,Wunderground v.1.15,2013-02-04 02:55:00,
2013-02-03 21:59:00,31.8,29.2,29.89,SSW,195,0.0,0.0,90,0.00,,,0.02,0,Wunderground v.1.15,2013-02-04 02:59:00,
2013-02-03 22:02:00,32.2,29.6,29.89,SW,227,0.0,1.0,90,0.00,,,0.02,0,Wunderground v.1.15,2013-02-04 03:02:00,
2013-02-03 22:05:00,32.4,29.5,29.89,SSW,197,1.0,1.0,89,0.00,,,0.02,0,Wunderground v.1.15,2013-02-04 03:05:00,
2013-02-03 22:07:00,33.1,29.9,29.88,SW,223,1.0,1.0,88,0.00,,,0.02,0,Wunderground v.1.15,2013-02-04 03:07:00,
2013-02-03 22:08:00,33.2,30.0,29.88,SW,224,1.0,1.0,88,0.00,,,0.02,0,Wunderground v.1.15,2013-02-04 03:08:00,
2013-02-03 22:09:00,33.4,30.2,29.88,SW,224,1.0,1.0,88,0.00,,,0.02,0,Wunderground v.1.15,2013-02-04 03:09:00,
2013-02-03 22:10:00,33.6,30.1,29.88,SW,224,1.0,1.0,87,0.00,,,0.02,0,Wunderground v.1.15,2013-02-04 03:10:00,
2013-02-03 22:15:00,34.4,30.1,29.89,SSW,209,0.0,1.0,84,0.00,,,0.02,0,Wunderground v.1.15,2013-02-04 03:15:00,
2013-02-03 22:16:00,34.4,30.1,29.89,SSW,205,0.0,1.0,84,0.00,,,0.02,0,Wunderground v.1.15,2013-02-04 03:16:00,
2013-02-03 22:19:00,35.0,30.1,29.90,SSW,213,0.0,1.0,82,0.00,,,0.02,0,Wunderground v.1.15,2013-02-04 03:19:00,
2013-02-03 22:22:00,35.3,29.7,29.90,SSW,202,0.0,0.0,80,0.00,,,0.02,0,Wunderground v.1.15,2013-02-04 03:22:00,
2013-02-03 22:26:00,35.7,29.8,29.89,SW,232,0.0,0.0,79,0.00,,,0.02,0,Wunderground v.1.15,2013-02-04 03:26:00,
2013-02-03 22:28:00,35.9,29.7,29.89,West,279,0.0,0.0,78,0.00,,,0.02,0,Wunderground v.1.15,2013-02-04 03:28:00,
2013-02-03 22:29:00,36.0,29.8,29.89,North,360,0.0,2.0,78,0.00,,,0.02,0,Wunderground v.1.15,2013-02-04 03:29:00,
2013-02-03 22:30:00,36.1,29.9,29.90,North,360,0.0,0.0,78,0.00,,,0.02,0,Wunderground v.1.15,2013-02-04 03:30:00,
2013-02-03 22:35:00,36.5,30.0,29.90,WNW,295,0.0,0.0,77,0.00,,,0.02,0,Wunderground v.1.15,2013-02-04 03:35:00,
2013-02-03 22:36:00,36.6,29.7,29.90,WNW,295,0.0,0.0,76,0.00,,,0.02,0,Wunderground v.1.15,2013-02-04 03:36:00,
2013-02-03 22:37:00,36.6,29.7,29.90,WNW,295,0.0,0.0,76,0.00,,,0.02,0,Wunderground v.1.15,2013-02-04 03:37:00,
2013-02-03 22:39:00,36.7,29.5,29.89,WNW,299,0.0,0.0,75,0.00,,,0.02,0,Wunderground v.1.15,2013-02-04 03:39:00,
2013-02-03 22:45:00,36.8,29.3,29.90,ESE,106,0.0,0.0,74,0.00,,,0.02,0,Wunderground v.1.15,2013-02-04 03:45:00,
2013-02-03 22:49:00,36.9,29.4,29.90,North,10,0.0,0.0,74,0.00,,,0.02,0,Wunderground v.1.15,2013-02-04 03:49:00,
2013-02-03 22:50:00,36.9,29.4,29.90,North,11,0.0,0.0,74,0.00,,,0.02,0,Wunderground v.1.15,2013-02-04 03:50:00,
2013-02-03 22:52:00,37.0,29.1,29.90,WSW,238,0.0,0.0,73,0.00,,,0.02,0,Wunderground v.1.15,2013-02-04 03:52:00,
2013-02-03 22:55:00,37.1,29.2,29.90,WSW,238,0.0,0.0,73,0.00,,,0.02,0,Wunderground v.1.15,2013-02-04 03:55:00,
2013-02-03 22:56:00,37.1,29.2,29.90,WSW,237,0.0,0.0,73,0.00,,,0.02,0,Wunderground v.1.15,2013-02-04 03:56:00,
2013-02-03 22:57:00,37.1,29.2,29.90,WNW,296,0.0,0.0,73,0.00,,,0.02,0,Wunderground v.1.15,2013-02-04 03:57:00,
2013-02-03 22:59:00,37.0,29.1,29.90,WNW,297,0.0,0.0,73,0.00,,,0.02,0,Wunderground v.1.15,2013-02-04 03:59:00,
2013-02-03 23:01:00,37.0,29.1,29.90,WNW,297,0.0,0.0,73,0.00,,,0.02,0,Wunderground v.1.15,2013-02-04 04:01:00,
2013-02-03 23:06:00,36.8,29.0,29.90,North,360,0.0,0.0,73,0.00,,,0.02,0,Wunderground v.1.15,2013-02-04 04:06:00,
2013-02-03 23:07:00,36.8,29.0,29.90,North,360,0.0,0.0,73,0.00,,,0.02,0,Wunderground v.1.15,2013-02-04 04:07:00,
2013-02-03 23:11:00,36.8,29.0,29.90,NNW,327,0.0,0.0,73,0.00,,,0.02,0,Wunderground v.1.15,2013-02-04 04:11:00,
2013-02-03 23:12:00,36.8,29.0,29.90,SW,234,0.0,0.0,73,0.00,,,0.02,0,Wunderground v.1.15,2013-02-04 04:12:00,
2013-02-03 23:18:00,36.8,29.0,29.90,NNW,331,0.0,1.0,73,0.00,,,0.02,0,Wunderground v.1.15,2013-02-04 04:18:00,
2013-02-03 23:20:00,36.9,28.7,29.90,NNW,332,0.0,5.0,72,0.00,,,0.02,0,Wunderground v.1.15,2013-02-04 04:20:00,
2013-02-03 23:21:00,36.8,29.0,29.90,WSW,248,0.0,5.0,73,0.00,,,0.02,0,Wunderground v.1.15,2013-02-04 04:21:00,
2013-02-03 23:25:00,36.8,28.6,29.90,SW,230,0.0,5.0,72,0.00,,,0.02,0,Wunderground v.1.15,2013-02-04 04:25:00,
2013-02-03 23:26:00,36.8,28.6,29.90,SW,230,0.0,5.0,72,0.00,,,0.02,0,Wunderground v.1.15,2013-02-04 04:26:00,
2013-02-03 23:27:00,36.8,28.6,29.90,SW,231,0.0,5.0,72,0.00,,,0.02,0,Wunderground v.1.15,2013-02-04 04:27:00,
2013-02-03 23:28:00,36.8,28.6,29.90,SW,230,0.0,5.0,72,0.00,,,0.02,0,Wunderground v.1.15,2013-02-04 04:28:00,
2013-02-03 23:32:00,36.7,28.5,29.91,West,272,0.0,0.0,72,0.00,,,0.02,0,Wunderground v.1.15,2013-02-04 04:32:00,
2013-02-03 23:36:00,36.6,28.4,29.91,SSE,161,0.0,0.0,72,0.00,,,0.02,0,Wunderground v.1.15,2013-02-04 04:36:00,
2013-02-03 23:37:00,36.7,28.5,29.91,SSE,159,0.0,0.0,72,0.00,,,0.02,0,Wunderground v.1.15,2013-02-04 04:37:00,
2013-02-03 23:39:00,36.7,28.5,29.91,SSE,159,0.0,0.0,72,0.00,,,0.02,0,Wunderground v.1.15,2013-02-04 04:39:00,
2013-02-03 23:40:00,36.6,28.4,29.91,SSE,159,0.0,0.0,72,0.00,,,0.02,0,Wunderground v.1.15,2013-02-04 04:40:00,
2013-02-03 23:45:00,36.5,28.3,29.91,ESE,119,0.0,0.0,72,0.00,,,0.02,0,Wunderground v.1.15,2013-02-04 04:45:00,
2013-02-03 23:47:00,36.6,28.4,29.91,ESE,111,0.0,0.0,72,0.00,,,0.02,0,Wunderground v.1.15,2013-02-04 04:47:00,
2013-02-03 23:51:00,36.6,28.1,29.91,WNW,290,0.0,1.0,71,0.00,,,0.02,0,Wunderground v.1.15,2013-02-04 04:51:00,
2013-02-03 23:55:00,36.5,28.0,29.91,North,9,0.0,1.0,71,0.00,,,0.02,0,Wunderground v.1.15,2013-02-04 04:55:00,
2013-02-03 23:56:00,36.5,28.0,29.91,North,360,0.0,1.0,71,0.00,,,0.02,0,Wunderground v.1.15,2013-02-04 04:56:00,
2013-02-03 23:57:00,36.4,27.9,29.91,North,5,0.0,1.0,71,0.00,,,0.02,0,Wunderground v.1.15,2013-02-04 04:57:00,